SVA375 OERK-GMMN
Flight info
| Callsign | SVA375 |
|---|---|
| Flight time | 8h 11m |
| Altitude | 34000 |
| Route | IVONU2D IVONU M321 HLF N316 PASAM/N0490F360 L677 CVO L617 SOBAX M872 METRU/N0477F380 DCT ARLOS DCT SONAK UR781 TUC UA411 BJA/N0472F400 UA411 FES UR975 SADIC SADIC1A |
| Aircraft | A333/H-SDE3GHIJ2J3J5M1RVWXYZ/LB2D1 |
Departure
| Time | 2026-04-29 10:10 |
|---|---|
| Airport | King Khalid International Airport (OERK) |
Arrival
| Time | 2026-04-29 18:21 |
|---|---|
| Airport | Mohammed V International Airport (GMMN) |
| Time | Latitude | Longitude | Altitude | Speed | Heading |
|---|---|---|---|---|---|
| 2026-04-29 08:37 | 24.94376 | 46.71713 | 2055 ft | 0 kts | 240° |
| 2026-04-29 08:40 | 24.94376 | 46.71714 | 2055 ft | 0 kts | 240° |
| 2026-04-29 09:39 | 24.94383 | 46.71726 | 2055 ft | 4 kts | 230° |
| 2026-04-29 09:39 | 24.94421 | 46.71750 | 2055 ft | 8 kts | 193° |
| 2026-04-29 09:39 | 24.94450 | 46.71743 | 2055 ft | 0 kts | 90° |
| 2026-04-29 09:40 | 24.94442 | 46.71762 | 2055 ft | 10 kts | 121° |
| 2026-04-29 09:40 | 24.94385 | 46.71888 | 2055 ft | 11 kts | 76° |
| 2026-04-29 09:40 | 24.94378 | 46.71934 | 2055 ft | 16 kts | 112° |
| 2026-04-29 09:41 | 24.94337 | 46.71975 | 2055 ft | 14 kts | 132° |
| 2026-04-29 09:41 | 24.94313 | 46.72075 | 2055 ft | 2 kts | 80° |
| 2026-04-29 09:41 | 24.94326 | 46.72098 | 2055 ft | 0 kts | 59° |
| 2026-04-29 10:07 | 24.94336 | 46.72118 | 2055 ft | 12 kts | 60° |
| 2026-04-29 10:07 | 24.94439 | 46.72234 | 2055 ft | 6 kts | 353° |
| 2026-04-29 10:07 | 24.94496 | 46.72217 | 2055 ft | 3 kts | 341° |
| 2026-04-29 10:08 | 24.94499 | 46.72215 | 2055 ft | 0 kts | 332° |
| 2026-04-29 10:08 | 24.94500 | 46.72214 | 2055 ft | 4 kts | 332° |
| 2026-04-29 10:09 | 24.94712 | 46.72081 | 2055 ft | 65 kts | 330° |
| 2026-04-29 10:09 | 24.95282 | 46.71725 | 2055 ft | 121 kts | 329° |
| 2026-04-29 10:09 | 24.96169 | 46.71171 | 2056 ft | 169 kts | 330° |
| 2026-04-29 10:09 | 24.97324 | 46.70450 | 2056 ft | 206 kts | 329° |
| 2026-04-29 10:10 | 24.98626 | 46.69643 | 2349 ft | 217 kts | 334° |
| 2026-04-29 10:10 | 24.99799 | 46.68977 | 3678 ft | 172 kts | 328° |
| 2026-04-29 10:10 | 25.00725 | 46.68294 | 4530 ft | 164 kts | 326° |
| 2026-04-29 10:10 | 25.01773 | 46.67834 | 5070 ft | 176 kts | 12° |
| 2026-04-29 10:11 | 25.03017 | 46.68325 | 5587 ft | 199 kts | 15° |
| 2026-04-29 10:11 | 25.04321 | 46.68154 | 6576 ft | 196 kts | 327° |
| 2026-04-29 10:11 | 25.05610 | 46.67273 | 6690 ft | 249 kts | 333° |
| 2026-04-29 10:11 | 25.07260 | 46.66311 | 7351 ft | 279 kts | 318° |
| 2026-04-29 10:12 | 25.08153 | 46.64808 | 9702 ft | 229 kts | 289° |
| 2026-04-29 10:12 | 25.08568 | 46.63196 | 10413 ft | 226 kts | 278° |
| 2026-04-29 10:12 | 25.08581 | 46.61407 | 10654 ft | 240 kts | 264° |
| 2026-04-29 10:12 | 25.08371 | 46.59583 | 11249 ft | 240 kts | 261° |
| 2026-04-29 10:13 | 25.08092 | 46.57762 | 11734 ft | 244 kts | 260° |
| 2026-04-29 10:13 | 25.07780 | 46.55913 | 12224 ft | 247 kts | 259° |
| 2026-04-29 10:13 | 25.07625 | 46.54031 | 12691 ft | 251 kts | 270° |
| 2026-04-29 10:13 | 25.07616 | 46.52761 | 13018 ft | 253 kts | 269° |
| 2026-04-29 10:14 | 25.07610 | 46.52411 | 13079 ft | 253 kts | 269° |
| 2026-04-29 10:14 | 25.07570 | 46.50425 | 12944 ft | 270 kts | 269° |
| 2026-04-29 10:14 | 25.07528 | 46.48304 | 13044 ft | 278 kts | 269° |
| 2026-04-29 10:14 | 25.07484 | 46.46157 | 13088 ft | 288 kts | 269° |
| 2026-04-29 10:15 | 25.07438 | 46.43918 | 13283 ft | 293 kts | 269° |
| 2026-04-29 10:15 | 25.07392 | 46.41663 | 13596 ft | 293 kts | 269° |
| 2026-04-29 10:15 | 25.07346 | 46.39429 | 13848 ft | 295 kts | 269° |
| 2026-04-29 10:15 | 25.07298 | 46.37149 | 14099 ft | 297 kts | 269° |
| 2026-04-29 10:16 | 25.07250 | 46.34865 | 14358 ft | 299 kts | 269° |
| 2026-04-29 10:16 | 25.07200 | 46.32562 | 14611 ft | 301 kts | 268° |
| 2026-04-29 10:16 | 25.07150 | 46.30271 | 14861 ft | 303 kts | 268° |
| 2026-04-29 10:16 | 25.07099 | 46.27945 | 15110 ft | 305 kts | 268° |
| 2026-04-29 10:17 | 25.07047 | 46.25605 | 15361 ft | 307 kts | 268° |
| 2026-04-29 10:17 | 25.06994 | 46.23248 | 15614 ft | 308 kts | 268° |
| 2026-04-29 10:17 | 25.06941 | 46.20873 | 15864 ft | 310 kts | 268° |
| 2026-04-29 10:17 | 25.06887 | 46.18493 | 16111 ft | 311 kts | 268° |
| 2026-04-29 10:18 | 25.06833 | 46.16127 | 16352 ft | 313 kts | 268° |
| 2026-04-29 10:18 | 25.06777 | 46.13728 | 16592 ft | 314 kts | 268° |
| 2026-04-29 10:18 | 25.06721 | 46.11308 | 16831 ft | 316 kts | 268° |
| 2026-04-29 10:18 | 25.06665 | 46.08875 | 17068 ft | 317 kts | 268° |
| 2026-04-29 10:19 | 25.06608 | 46.06466 | 17298 ft | 319 kts | 268° |
| 2026-04-29 10:19 | 25.06550 | 46.04011 | 17528 ft | 320 kts | 268° |
| 2026-04-29 10:19 | 25.06491 | 46.01538 | 17757 ft | 322 kts | 268° |
| 2026-04-29 10:19 | 25.06432 | 45.99094 | 17979 ft | 323 kts | 268° |
| 2026-04-29 10:20 | 25.06372 | 45.96607 | 18201 ft | 325 kts | 268° |
| 2026-04-29 10:20 | 25.06311 | 45.94104 | 18421 ft | 326 kts | 268° |
| 2026-04-29 10:20 | 25.06251 | 45.91626 | 18636 ft | 328 kts | 268° |
| 2026-04-29 10:20 | 25.06188 | 45.89104 | 18851 ft | 329 kts | 268° |
| 2026-04-29 10:21 | 25.06126 | 45.86579 | 19062 ft | 330 kts | 268° |
| 2026-04-29 10:21 | 25.06062 | 45.84034 | 19272 ft | 332 kts | 268° |
| 2026-04-29 10:21 | 25.05999 | 45.81508 | 19475 ft | 333 kts | 268° |
| 2026-04-29 10:21 | 25.05934 | 45.78940 | 19677 ft | 335 kts | 268° |
| 2026-04-29 10:22 | 25.05869 | 45.76396 | 19875 ft | 336 kts | 268° |
| 2026-04-29 10:22 | 25.05802 | 45.73804 | 20074 ft | 337 kts | 268° |
| 2026-04-29 10:22 | 25.05735 | 45.71217 | 20270 ft | 339 kts | 268° |
| 2026-04-29 10:22 | 25.05668 | 45.68613 | 20464 ft | 340 kts | 269° |
| 2026-04-29 10:23 | 25.05870 | 45.66036 | 20612 ft | 341 kts | 282° |
| 2026-04-29 10:23 | 25.06334 | 45.63448 | 20802 ft | 343 kts | 281° |
| 2026-04-29 10:23 | 25.06769 | 45.60891 | 21004 ft | 344 kts | 281° |
| 2026-04-29 10:23 | 25.07212 | 45.58294 | 21193 ft | 345 kts | 281° |
| 2026-04-29 10:24 | 25.07658 | 45.55678 | 21372 ft | 346 kts | 281° |
| 2026-04-29 10:24 | 25.08099 | 45.53079 | 21549 ft | 348 kts | 281° |
| 2026-04-29 10:24 | 25.08542 | 45.50471 | 21725 ft | 349 kts | 281° |
| 2026-04-29 10:24 | 25.08992 | 45.47818 | 21900 ft | 350 kts | 281° |
| 2026-04-29 10:25 | 25.09441 | 45.45171 | 22072 ft | 351 kts | 281° |
| 2026-04-29 10:25 | 25.09885 | 45.42543 | 22239 ft | 353 kts | 281° |
| 2026-04-29 10:25 | 25.10336 | 45.39875 | 22406 ft | 354 kts | 281° |
| 2026-04-29 10:25 | 25.10784 | 45.37226 | 22568 ft | 355 kts | 281° |
| 2026-04-29 10:26 | 25.11238 | 45.34532 | 22731 ft | 356 kts | 280° |
| 2026-04-29 10:26 | 25.11690 | 45.31850 | 22889 ft | 357 kts | 280° |
| 2026-04-29 10:26 | 25.12143 | 45.29157 | 23046 ft | 358 kts | 280° |
| 2026-04-29 10:26 | 25.12597 | 45.26455 | 23201 ft | 360 kts | 280° |
| 2026-04-29 10:27 | 25.13510 | 45.21013 | 23508 ft | 362 kts | 280° |
| 2026-04-29 10:27 | 25.13967 | 45.18283 | 23660 ft | 363 kts | 280° |
| 2026-04-29 10:27 | 25.14424 | 45.15555 | 23810 ft | 364 kts | 280° |
| 2026-04-29 10:28 | 25.14881 | 45.12814 | 23959 ft | 365 kts | 280° |
| 2026-04-29 10:28 | 25.15344 | 45.10047 | 24108 ft | 366 kts | 280° |
| 2026-04-29 10:28 | 25.15802 | 45.07298 | 24254 ft | 367 kts | 280° |
| 2026-04-29 10:28 | 25.16261 | 45.04537 | 24399 ft | 368 kts | 280° |
| 2026-04-29 10:29 | 25.16722 | 45.01766 | 24543 ft | 369 kts | 280° |
| 2026-04-29 10:29 | 25.17190 | 44.98951 | 24687 ft | 371 kts | 280° |
| 2026-04-29 10:29 | 25.17651 | 44.96170 | 24828 ft | 372 kts | 280° |
| 2026-04-29 10:29 | 25.18115 | 44.93373 | 24969 ft | 373 kts | 280° |
| 2026-04-29 10:30 | 25.18579 | 44.90567 | 25108 ft | 374 kts | 280° |
| 2026-04-29 10:30 | 25.19045 | 44.87749 | 25246 ft | 375 kts | 280° |
| 2026-04-29 10:30 | 25.19515 | 44.84904 | 25384 ft | 376 kts | 280° |
| 2026-04-29 10:30 | 25.19982 | 44.82066 | 25520 ft | 377 kts | 280° |
| 2026-04-29 10:31 | 25.20451 | 44.79220 | 25655 ft | 378 kts | 280° |
| 2026-04-29 10:31 | 25.20921 | 44.76362 | 25789 ft | 379 kts | 280° |
| 2026-04-29 10:31 | 25.21389 | 44.73518 | 25920 ft | 380 kts | 280° |
| 2026-04-29 10:31 | 25.21859 | 44.70650 | 26051 ft | 381 kts | 280° |
| 2026-04-29 10:32 | 25.22330 | 44.67777 | 26181 ft | 382 kts | 280° |
| 2026-04-29 10:32 | 25.22802 | 44.64890 | 26310 ft | 383 kts | 280° |
| 2026-04-29 10:32 | 25.23276 | 44.61991 | 26437 ft | 384 kts | 280° |
| 2026-04-29 10:32 | 25.23751 | 44.59084 | 26564 ft | 385 kts | 280° |
| 2026-04-29 10:33 | 25.24224 | 44.56182 | 26689 ft | 386 kts | 280° |
| 2026-04-29 10:33 | 25.24700 | 44.53257 | 26813 ft | 387 kts | 280° |
| 2026-04-29 10:33 | 25.25176 | 44.50333 | 26936 ft | 388 kts | 280° |
| 2026-04-29 10:33 | 25.25720 | 44.47422 | 27052 ft | 389 kts | 282° |
| 2026-04-29 10:34 | 25.26279 | 44.44503 | 27173 ft | 390 kts | 282° |
| 2026-04-29 10:34 | 25.26836 | 44.41576 | 27295 ft | 391 kts | 282° |
| 2026-04-29 10:34 | 25.27392 | 44.38653 | 27413 ft | 392 kts | 282° |
| 2026-04-29 10:34 | 25.27951 | 44.35710 | 27532 ft | 393 kts | 282° |
| 2026-04-29 10:35 | 25.28509 | 44.32772 | 27650 ft | 394 kts | 282° |
| 2026-04-29 10:35 | 25.29070 | 44.29810 | 27767 ft | 394 kts | 282° |
| 2026-04-29 10:35 | 25.29628 | 44.26860 | 27883 ft | 395 kts | 282° |
| 2026-04-29 10:35 | 25.30189 | 44.23893 | 27999 ft | 396 kts | 282° |
| 2026-04-29 10:36 | 25.30753 | 44.20907 | 28114 ft | 397 kts | 282° |
| 2026-04-29 10:36 | 25.31318 | 44.17915 | 28229 ft | 398 kts | 282° |
| 2026-04-29 10:36 | 25.31883 | 44.14917 | 28343 ft | 399 kts | 282° |
| 2026-04-29 10:36 | 25.32450 | 44.11901 | 28456 ft | 400 kts | 282° |
| 2026-04-29 10:37 | 25.33011 | 44.08918 | 28567 ft | 401 kts | 282° |
| 2026-04-29 10:37 | 25.33581 | 44.05882 | 28679 ft | 402 kts | 282° |
| 2026-04-29 10:37 | 25.34145 | 44.02873 | 28789 ft | 403 kts | 282° |
| 2026-04-29 10:37 | 25.34712 | 43.99848 | 28898 ft | 404 kts | 282° |
| 2026-04-29 10:38 | 25.35276 | 43.96830 | 29006 ft | 404 kts | 282° |
| 2026-04-29 10:38 | 25.35843 | 43.93797 | 29113 ft | 405 kts | 282° |
| 2026-04-29 10:38 | 25.36415 | 43.90734 | 29221 ft | 406 kts | 282° |
| 2026-04-29 10:38 | 25.36987 | 43.87665 | 29327 ft | 407 kts | 282° |
| 2026-04-29 10:39 | 25.37559 | 43.84593 | 29434 ft | 408 kts | 282° |
| 2026-04-29 10:39 | 25.38130 | 43.81524 | 29538 ft | 409 kts | 282° |
| 2026-04-29 10:39 | 25.38702 | 43.78441 | 29641 ft | 410 kts | 282° |
| 2026-04-29 10:39 | 25.39270 | 43.75383 | 29744 ft | 411 kts | 282° |
| 2026-04-29 10:40 | 25.39840 | 43.72304 | 29846 ft | 411 kts | 282° |
| 2026-04-29 10:40 | 25.40421 | 43.69167 | 29948 ft | 412 kts | 282° |
| 2026-04-29 10:40 | 25.40990 | 43.66086 | 30049 ft | 413 kts | 282° |
| 2026-04-29 10:41 | 25.42146 | 43.59820 | 30247 ft | 415 kts | 282° |
| 2026-04-29 10:41 | 25.43300 | 43.53551 | 30439 ft | 416 kts | 282° |
| 2026-04-29 10:42 | 25.44457 | 43.47250 | 30625 ft | 418 kts | 282° |
| 2026-04-29 10:42 | 25.45609 | 43.40955 | 30804 ft | 420 kts | 282° |
| 2026-04-29 10:43 | 25.46768 | 43.34613 | 30979 ft | 421 kts | 281° |
| 2026-04-29 10:43 | 25.47929 | 43.28236 | 31148 ft | 422 kts | 281° |
| 2026-04-29 10:44 | 25.49089 | 43.21856 | 31313 ft | 424 kts | 281° |
| 2026-04-29 10:44 | 25.50245 | 43.15477 | 31471 ft | 425 kts | 281° |
| 2026-04-29 10:45 | 25.51407 | 43.09050 | 31623 ft | 427 kts | 281° |
| 2026-04-29 10:45 | 25.52573 | 43.02584 | 31768 ft | 428 kts | 281° |
| 2026-04-29 10:46 | 25.53736 | 42.96125 | 31907 ft | 429 kts | 281° |
| 2026-04-29 10:46 | 25.54899 | 42.89650 | 32038 ft | 430 kts | 281° |
| 2026-04-29 10:47 | 25.56057 | 42.83184 | 32161 ft | 431 kts | 281° |
| 2026-04-29 10:47 | 25.57227 | 42.76639 | 32279 ft | 432 kts | 281° |
| 2026-04-29 10:48 | 25.58389 | 42.70121 | 32391 ft | 433 kts | 281° |
| 2026-04-29 10:48 | 25.59554 | 42.63567 | 32495 ft | 434 kts | 281° |
| 2026-04-29 10:49 | 25.60709 | 42.57051 | 32593 ft | 435 kts | 281° |
| 2026-04-29 10:49 | 25.61873 | 42.50465 | 32686 ft | 436 kts | 281° |
| 2026-04-29 10:50 | 25.63033 | 42.43886 | 32774 ft | 437 kts | 281° |
| 2026-04-29 10:50 | 25.64195 | 42.37281 | 32856 ft | 438 kts | 281° |
| 2026-04-29 10:51 | 25.65351 | 42.30687 | 32934 ft | 438 kts | 281° |
| 2026-04-29 10:51 | 25.66625 | 42.24070 | 32990 ft | 439 kts | 287° |
| 2026-04-29 10:52 | 25.68388 | 42.17625 | 33060 ft | 439 kts | 287° |
| 2026-04-29 10:52 | 25.70141 | 42.11129 | 33123 ft | 440 kts | 286° |
| 2026-04-29 10:53 | 25.71890 | 42.04625 | 33186 ft | 441 kts | 286° |
| 2026-04-29 10:53 | 25.73637 | 41.98120 | 33243 ft | 441 kts | 286° |
| 2026-04-29 10:54 | 25.75373 | 41.91641 | 33296 ft | 442 kts | 286° |
| 2026-04-29 10:54 | 25.77125 | 41.85093 | 33346 ft | 442 kts | 286° |
| 2026-04-29 10:55 | 25.78866 | 41.78569 | 33392 ft | 442 kts | 286° |
| 2026-04-29 10:55 | 25.80616 | 41.72002 | 33436 ft | 443 kts | 286° |
| 2026-04-29 10:56 | 25.82353 | 41.65467 | 33477 ft | 443 kts | 286° |
| 2026-04-29 10:56 | 25.84090 | 41.58922 | 33514 ft | 444 kts | 286° |
| 2026-04-29 10:57 | 25.85832 | 41.52341 | 33549 ft | 444 kts | 286° |
| 2026-04-29 10:57 | 25.87557 | 41.45819 | 33583 ft | 444 kts | 286° |
| 2026-04-29 10:58 | 25.89291 | 41.39242 | 33614 ft | 444 kts | 286° |
| 2026-04-29 10:58 | 25.91031 | 41.32633 | 33643 ft | 445 kts | 286° |
| 2026-04-29 10:59 | 25.92752 | 41.26080 | 33669 ft | 445 kts | 286° |
| 2026-04-29 10:59 | 25.94486 | 41.19470 | 33693 ft | 445 kts | 286° |
| 2026-04-29 11:00 | 25.96210 | 41.12882 | 33716 ft | 445 kts | 286° |
| 2026-04-29 11:00 | 25.97924 | 41.06314 | 33738 ft | 446 kts | 286° |
| 2026-04-29 11:01 | 25.99649 | 40.99697 | 33758 ft | 446 kts | 286° |
| 2026-04-29 11:01 | 26.01369 | 40.93083 | 33777 ft | 446 kts | 286° |
| 2026-04-29 11:02 | 26.03080 | 40.86489 | 33794 ft | 446 kts | 286° |
| 2026-04-29 11:02 | 26.04797 | 40.79861 | 33810 ft | 446 kts | 286° |
| 2026-04-29 11:03 | 26.06505 | 40.73254 | 33824 ft | 446 kts | 286° |
| 2026-04-29 11:03 | 26.08218 | 40.66613 | 33837 ft | 447 kts | 286° |
| 2026-04-29 11:04 | 26.09922 | 40.59991 | 33849 ft | 447 kts | 286° |
| 2026-04-29 11:04 | 26.11630 | 40.53341 | 33861 ft | 447 kts | 286° |
| 2026-04-29 11:05 | 26.13327 | 40.46724 | 33872 ft | 447 kts | 286° |
| 2026-04-29 11:05 | 26.15026 | 40.40080 | 33884 ft | 447 kts | 286° |
| 2026-04-29 11:06 | 26.16721 | 40.33442 | 33894 ft | 447 kts | 285° |
| 2026-04-29 11:06 | 26.18407 | 40.26819 | 33903 ft | 447 kts | 285° |
| 2026-04-29 11:07 | 26.20098 | 40.20166 | 33912 ft | 447 kts | 285° |
| 2026-04-29 11:07 | 26.21783 | 40.13520 | 33921 ft | 447 kts | 285° |
| 2026-04-29 11:08 | 26.23468 | 40.06864 | 33930 ft | 447 kts | 285° |
| 2026-04-29 11:08 | 26.25149 | 40.00203 | 33937 ft | 447 kts | 285° |
| 2026-04-29 11:09 | 26.26824 | 39.93560 | 33945 ft | 448 kts | 285° |
| 2026-04-29 11:09 | 26.28504 | 39.86876 | 33951 ft | 448 kts | 285° |
| 2026-04-29 11:10 | 26.30178 | 39.80206 | 33958 ft | 448 kts | 285° |
| 2026-04-29 11:10 | 26.31846 | 39.73544 | 33963 ft | 448 kts | 285° |
| 2026-04-29 11:11 | 26.33514 | 39.66870 | 33969 ft | 448 kts | 285° |
| 2026-04-29 11:11 | 26.35166 | 39.60242 | 33974 ft | 448 kts | 285° |
| 2026-04-29 11:12 | 26.36830 | 39.53553 | 33979 ft | 448 kts | 285° |
| 2026-04-29 11:12 | 26.38486 | 39.46881 | 33984 ft | 448 kts | 285° |
| 2026-04-29 11:13 | 26.40139 | 39.40210 | 33988 ft | 448 kts | 285° |
| 2026-04-29 11:13 | 26.41792 | 39.33522 | 33992 ft | 448 kts | 285° |
| 2026-04-29 11:14 | 26.43441 | 39.26843 | 33998 ft | 448 kts | 286° |
| 2026-04-29 11:14 | 26.45218 | 39.20159 | 34000 ft | 448 kts | 286° |
| 2026-04-29 11:15 | 26.46972 | 39.13551 | 33999 ft | 447 kts | 286° |
| 2026-04-29 11:15 | 26.48733 | 39.06901 | 33999 ft | 447 kts | 286° |
| 2026-04-29 11:16 | 26.50489 | 39.00253 | 34000 ft | 448 kts | 286° |
| 2026-04-29 11:16 | 26.52240 | 38.93614 | 34000 ft | 448 kts | 286° |
| 2026-04-29 11:17 | 26.53990 | 38.86963 | 34001 ft | 448 kts | 286° |
| 2026-04-29 11:17 | 26.55741 | 38.80296 | 34000 ft | 448 kts | 286° |
| 2026-04-29 11:18 | 26.57485 | 38.73640 | 34000 ft | 449 kts | 286° |
| 2026-04-29 11:18 | 26.59233 | 38.66959 | 34000 ft | 448 kts | 286° |
| 2026-04-29 11:19 | 26.60973 | 38.60291 | 34000 ft | 448 kts | 286° |
| 2026-04-29 11:19 | 26.62710 | 38.53623 | 34000 ft | 448 kts | 286° |
| 2026-04-29 11:20 | 26.64446 | 38.46943 | 34000 ft | 448 kts | 286° |
| 2026-04-29 11:20 | 26.66178 | 38.40262 | 34000 ft | 448 kts | 286° |
| 2026-04-29 11:21 | 26.67906 | 38.33588 | 34000 ft | 448 kts | 286° |
| 2026-04-29 11:21 | 26.69621 | 38.26948 | 34000 ft | 448 kts | 286° |
| 2026-04-29 11:22 | 26.71343 | 38.20265 | 34000 ft | 448 kts | 286° |
| 2026-04-29 11:22 | 26.73056 | 38.13603 | 34000 ft | 448 kts | 286° |
| 2026-04-29 11:23 | 26.74777 | 38.06898 | 34000 ft | 448 kts | 286° |
| 2026-04-29 11:23 | 26.76486 | 38.00225 | 34000 ft | 448 kts | 286° |
| 2026-04-29 11:24 | 26.78194 | 37.93539 | 34000 ft | 448 kts | 286° |
| 2026-04-29 11:24 | 26.79896 | 37.86864 | 34000 ft | 448 kts | 286° |
| 2026-04-29 11:25 | 26.81600 | 37.80166 | 34000 ft | 448 kts | 286° |
| 2026-04-29 11:25 | 26.83298 | 37.73479 | 34000 ft | 448 kts | 286° |
| 2026-04-29 11:26 | 26.85845 | 37.63419 | 34000 ft | 448 kts | 286° |
| 2026-04-29 11:26 | 26.87540 | 37.56710 | 34000 ft | 448 kts | 286° |
| 2026-04-29 11:27 | 26.89220 | 37.50042 | 34000 ft | 448 kts | 286° |
| 2026-04-29 11:27 | 26.90912 | 37.43313 | 34000 ft | 448 kts | 286° |
| 2026-04-29 11:28 | 26.92594 | 37.36606 | 34000 ft | 448 kts | 286° |
| 2026-04-29 11:28 | 26.94268 | 37.29920 | 34000 ft | 448 kts | 285° |
| 2026-04-29 11:29 | 26.95939 | 37.23230 | 34000 ft | 448 kts | 285° |
| 2026-04-29 11:29 | 26.97609 | 37.16531 | 34000 ft | 448 kts | 285° |
| 2026-04-29 11:30 | 26.99277 | 37.09823 | 34000 ft | 448 kts | 285° |
| 2026-04-29 11:30 | 27.00948 | 37.03092 | 34000 ft | 448 kts | 285° |
| 2026-04-29 11:31 | 27.02611 | 36.96374 | 34000 ft | 448 kts | 285° |
| 2026-04-29 11:31 | 27.04276 | 36.89635 | 34000 ft | 448 kts | 285° |
| 2026-04-29 11:32 | 27.05926 | 36.82939 | 34000 ft | 448 kts | 285° |
| 2026-04-29 11:32 | 27.07583 | 36.76203 | 34000 ft | 448 kts | 285° |
| 2026-04-29 11:33 | 27.09239 | 36.69458 | 34000 ft | 448 kts | 285° |
| 2026-04-29 11:33 | 27.10883 | 36.62741 | 34000 ft | 448 kts | 285° |
| 2026-04-29 11:34 | 27.12529 | 36.56002 | 34001 ft | 448 kts | 285° |
| 2026-04-29 11:34 | 27.14171 | 36.49266 | 34001 ft | 448 kts | 285° |
| 2026-04-29 11:35 | 27.15805 | 36.42549 | 34001 ft | 448 kts | 285° |
| 2026-04-29 11:35 | 27.17434 | 36.35832 | 34001 ft | 448 kts | 285° |
| 2026-04-29 11:36 | 27.19073 | 36.29061 | 34001 ft | 448 kts | 285° |
| 2026-04-29 11:36 | 27.20700 | 36.22324 | 34001 ft | 448 kts | 285° |
| 2026-04-29 11:37 | 27.22321 | 36.15596 | 34001 ft | 448 kts | 285° |
| 2026-04-29 11:37 | 27.23932 | 36.08894 | 34001 ft | 448 kts | 285° |
| 2026-04-29 11:38 | 27.25558 | 36.02117 | 34001 ft | 448 kts | 285° |
| 2026-04-29 11:38 | 27.27172 | 35.95370 | 34002 ft | 448 kts | 285° |
| 2026-04-29 11:39 | 27.28783 | 35.88625 | 34002 ft | 448 kts | 285° |
| 2026-04-29 11:39 | 27.30390 | 35.81876 | 34001 ft | 448 kts | 285° |
| 2026-04-29 11:40 | 27.31991 | 35.75139 | 34002 ft | 448 kts | 285° |
| 2026-04-29 11:40 | 27.33594 | 35.68382 | 34002 ft | 448 kts | 285° |
| 2026-04-29 11:41 | 27.35183 | 35.61663 | 34002 ft | 448 kts | 285° |
| 2026-04-29 11:41 | 27.36778 | 35.54907 | 34001 ft | 448 kts | 285° |
| 2026-04-29 11:42 | 27.38375 | 35.48124 | 34001 ft | 448 kts | 285° |
| 2026-04-29 11:42 | 27.39964 | 35.41359 | 34001 ft | 448 kts | 285° |
| 2026-04-29 11:43 | 27.41550 | 35.34592 | 34001 ft | 448 kts | 284° |
| 2026-04-29 11:43 | 27.43124 | 35.27861 | 34001 ft | 448 kts | 284° |
| 2026-04-29 11:44 | 27.44702 | 35.21094 | 34001 ft | 448 kts | 284° |
| 2026-04-29 11:44 | 27.46277 | 35.14326 | 34001 ft | 448 kts | 284° |
| 2026-04-29 11:45 | 27.47855 | 35.07531 | 34001 ft | 448 kts | 284° |
| 2026-04-29 11:45 | 27.49416 | 35.00790 | 34001 ft | 448 kts | 284° |
| 2026-04-29 11:46 | 27.51152 | 34.94051 | 33981 ft | 447 kts | 296° |
| 2026-04-29 11:46 | 27.52835 | 34.91167 | 34046 ft | 444 kts | 313° |
| 2026-04-29 11:46 | 27.55082 | 34.88776 | 34056 ft | 444 kts | 317° |
| 2026-04-29 11:47 | 27.59608 | 34.84024 | 34008 ft | 446 kts | 317° |
| 2026-04-29 11:47 | 27.64134 | 34.79245 | 34001 ft | 447 kts | 317° |
| 2026-04-29 11:48 | 27.68674 | 34.74440 | 34001 ft | 448 kts | 317° |
| 2026-04-29 11:48 | 27.73234 | 34.69610 | 34002 ft | 449 kts | 317° |
| 2026-04-29 11:49 | 27.77771 | 34.64798 | 34003 ft | 449 kts | 317° |
| 2026-04-29 11:49 | 27.82315 | 34.59971 | 34003 ft | 450 kts | 317° |
| 2026-04-29 11:50 | 27.86894 | 34.55103 | 34002 ft | 450 kts | 317° |
| 2026-04-29 11:50 | 27.91441 | 34.50262 | 34000 ft | 450 kts | 317° |
| 2026-04-29 11:51 | 27.95988 | 34.45416 | 34001 ft | 448 kts | 317° |
| 2026-04-29 11:51 | 28.00416 | 34.40522 | 33992 ft | 447 kts | 309° |
| 2026-04-29 11:52 | 28.04361 | 34.35050 | 33991 ft | 448 kts | 309° |
| 2026-04-29 11:52 | 28.08287 | 34.29618 | 34003 ft | 449 kts | 309° |
| 2026-04-29 11:53 | 28.12240 | 34.24144 | 34003 ft | 448 kts | 309° |
| 2026-04-29 11:53 | 28.16162 | 34.18705 | 34002 ft | 448 kts | 309° |
| 2026-04-29 11:54 | 28.20098 | 34.13238 | 34000 ft | 448 kts | 309° |
| 2026-04-29 11:54 | 28.24026 | 34.07777 | 33999 ft | 448 kts | 309° |
| 2026-04-29 11:55 | 28.27951 | 34.02314 | 33999 ft | 448 kts | 309° |
| 2026-04-29 11:55 | 28.31903 | 33.96804 | 33999 ft | 448 kts | 309° |
| 2026-04-29 11:56 | 28.35822 | 33.91334 | 34000 ft | 448 kts | 309° |
| 2026-04-29 11:56 | 28.39740 | 33.85858 | 34000 ft | 448 kts | 309° |
| 2026-04-29 11:57 | 28.43658 | 33.80375 | 34000 ft | 448 kts | 309° |
| 2026-04-29 11:57 | 28.47591 | 33.74864 | 34000 ft | 448 kts | 309° |
| 2026-04-29 11:58 | 28.51511 | 33.69364 | 34000 ft | 448 kts | 309° |
| 2026-04-29 11:58 | 28.55408 | 33.63897 | 34001 ft | 448 kts | 309° |
| 2026-04-29 11:59 | 28.59335 | 33.58389 | 34001 ft | 448 kts | 309° |
| 2026-04-29 11:59 | 28.63255 | 33.52883 | 34001 ft | 448 kts | 309° |
| 2026-04-29 12:00 | 28.67163 | 33.47374 | 34001 ft | 448 kts | 309° |
| 2026-04-29 12:00 | 28.71079 | 33.41846 | 34001 ft | 448 kts | 309° |
| 2026-04-29 12:01 | 28.74985 | 33.36325 | 34001 ft | 448 kts | 309° |
| 2026-04-29 12:01 | 28.78877 | 33.30817 | 34001 ft | 448 kts | 308° |
| 2026-04-29 12:02 | 28.82779 | 33.25288 | 34001 ft | 448 kts | 308° |
| 2026-04-29 12:02 | 28.86657 | 33.19785 | 34001 ft | 448 kts | 308° |
| 2026-04-29 12:03 | 28.90551 | 33.14253 | 34001 ft | 448 kts | 308° |
| 2026-04-29 12:03 | 28.94447 | 33.08710 | 34001 ft | 448 kts | 308° |
| 2026-04-29 12:04 | 28.98354 | 33.03142 | 34001 ft | 448 kts | 308° |
| 2026-04-29 12:04 | 29.02231 | 32.97611 | 34001 ft | 448 kts | 308° |
| 2026-04-29 12:05 | 29.06105 | 32.92078 | 34001 ft | 448 kts | 308° |
| 2026-04-29 12:05 | 29.10000 | 32.86506 | 34001 ft | 448 kts | 308° |
| 2026-04-29 12:06 | 29.13883 | 32.80945 | 34001 ft | 448 kts | 308° |
| 2026-04-29 12:06 | 29.17754 | 32.75393 | 34001 ft | 448 kts | 308° |
| 2026-04-29 12:07 | 29.21621 | 32.69839 | 34001 ft | 448 kts | 308° |
| 2026-04-29 12:07 | 29.25493 | 32.64271 | 34001 ft | 448 kts | 308° |
| 2026-04-29 12:08 | 29.29378 | 32.58664 | 34001 ft | 448 kts | 308° |
| 2026-04-29 12:08 | 29.33223 | 32.53067 | 34001 ft | 448 kts | 308° |
| 2026-04-29 12:09 | 29.37067 | 32.47465 | 34001 ft | 448 kts | 308° |
| 2026-04-29 12:09 | 29.40902 | 32.41871 | 34001 ft | 448 kts | 308° |
| 2026-04-29 12:10 | 29.44752 | 32.36246 | 34001 ft | 448 kts | 308° |
| 2026-04-29 12:10 | 29.48587 | 32.30634 | 34000 ft | 448 kts | 308° |
| 2026-04-29 12:11 | 29.52417 | 32.25023 | 34000 ft | 448 kts | 308° |
| 2026-04-29 12:11 | 29.56267 | 32.19374 | 34000 ft | 448 kts | 308° |
| 2026-04-29 12:12 | 29.60091 | 32.13756 | 34001 ft | 448 kts | 308° |
| 2026-04-29 12:12 | 29.63910 | 32.08138 | 34001 ft | 448 kts | 308° |
| 2026-04-29 12:13 | 29.67758 | 32.02469 | 34001 ft | 448 kts | 308° |
| 2026-04-29 12:13 | 29.71574 | 31.96839 | 34001 ft | 448 kts | 308° |
| 2026-04-29 12:14 | 29.75379 | 31.91218 | 34001 ft | 448 kts | 308° |
| 2026-04-29 12:14 | 29.79199 | 31.85516 | 34000 ft | 448 kts | 306° |
| 2026-04-29 12:15 | 29.82888 | 31.79760 | 34000 ft | 448 kts | 306° |
| 2026-04-29 12:15 | 29.86576 | 31.74009 | 34001 ft | 448 kts | 306° |
| 2026-04-29 12:16 | 29.90266 | 31.68249 | 34002 ft | 448 kts | 306° |
| 2026-04-29 12:16 | 29.93971 | 31.62505 | 34002 ft | 448 kts | 307° |
| 2026-04-29 12:17 | 29.97702 | 31.56735 | 34001 ft | 448 kts | 307° |
| 2026-04-29 12:17 | 30.01410 | 31.50993 | 34001 ft | 448 kts | 307° |
| 2026-04-29 12:18 | 30.05135 | 31.45218 | 34001 ft | 448 kts | 307° |
| 2026-04-29 12:18 | 30.08845 | 31.39473 | 33998 ft | 448 kts | 309° |
| 2026-04-29 12:19 | 30.13310 | 31.34484 | 34019 ft | 448 kts | 316° |
| 2026-04-29 12:19 | 30.17885 | 31.29572 | 34010 ft | 449 kts | 317° |
| 2026-04-29 12:20 | 30.22461 | 31.24655 | 34002 ft | 448 kts | 317° |
| 2026-04-29 12:20 | 30.27005 | 31.19764 | 34000 ft | 448 kts | 317° |
| 2026-04-29 12:21 | 30.31542 | 31.14875 | 34000 ft | 448 kts | 317° |
| 2026-04-29 12:21 | 30.36089 | 31.09970 | 34001 ft | 448 kts | 317° |
| 2026-04-29 12:22 | 30.40652 | 31.05040 | 34002 ft | 448 kts | 317° |
| 2026-04-29 12:22 | 30.45201 | 31.00119 | 34002 ft | 448 kts | 317° |
| 2026-04-29 12:23 | 30.49748 | 30.95194 | 34001 ft | 448 kts | 317° |
| 2026-04-29 12:23 | 30.54320 | 30.90235 | 34001 ft | 448 kts | 317° |
| 2026-04-29 12:24 | 30.58845 | 30.85320 | 34001 ft | 448 kts | 317° |
| 2026-04-29 12:24 | 30.63388 | 30.80378 | 34001 ft | 448 kts | 317° |
| 2026-04-29 12:25 | 30.67949 | 30.75410 | 34001 ft | 448 kts | 317° |
| 2026-04-29 12:26 | 30.74736 | 30.68006 | 34001 ft | 448 kts | 317° |
| 2026-04-29 12:26 | 30.79278 | 30.63042 | 34001 ft | 448 kts | 317° |
| 2026-04-29 12:27 | 30.83795 | 30.58100 | 34001 ft | 448 kts | 317° |
| 2026-04-29 12:27 | 30.88343 | 30.53115 | 34001 ft | 448 kts | 317° |
| 2026-04-29 12:28 | 30.92869 | 30.48150 | 34001 ft | 448 kts | 317° |
| 2026-04-29 12:28 | 30.97371 | 30.43203 | 34001 ft | 448 kts | 317° |
| 2026-04-29 12:29 | 31.01916 | 30.38202 | 34001 ft | 448 kts | 317° |
| 2026-04-29 12:29 | 31.06433 | 30.33225 | 34001 ft | 448 kts | 316° |
| 2026-04-29 12:29 | 31.08544 | 30.30578 | 33981 ft | 447 kts | 303° |
| 2026-04-29 12:30 | 31.09946 | 30.27403 | 34048 ft | 445 kts | 288° |
| 2026-04-29 12:30 | 31.11831 | 30.20534 | 33979 ft | 448 kts | 287° |
| 2026-04-29 12:31 | 31.13722 | 30.13614 | 34002 ft | 449 kts | 287° |
| 2026-04-29 12:31 | 31.15612 | 30.06669 | 34003 ft | 450 kts | 287° |
| 2026-04-29 12:32 | 31.17500 | 29.99714 | 34000 ft | 449 kts | 287° |
| 2026-04-29 12:32 | 31.19969 | 29.93115 | 34018 ft | 445 kts | 307° |
| 2026-04-29 12:33 | 31.23642 | 29.87277 | 33975 ft | 448 kts | 306° |
| 2026-04-29 12:33 | 31.27290 | 29.81432 | 34002 ft | 449 kts | 306° |
| 2026-04-29 12:34 | 31.30963 | 29.75540 | 34002 ft | 449 kts | 306° |
| 2026-04-29 12:34 | 31.34621 | 29.69663 | 34001 ft | 447 kts | 306° |
| 2026-04-29 12:35 | 31.38274 | 29.63785 | 34002 ft | 448 kts | 306° |
| 2026-04-29 12:35 | 31.41951 | 29.57860 | 34002 ft | 448 kts | 306° |
| 2026-04-29 12:36 | 31.45578 | 29.52006 | 34001 ft | 448 kts | 306° |
| 2026-04-29 12:36 | 31.49230 | 29.46102 | 34001 ft | 448 kts | 306° |
| 2026-04-29 12:37 | 31.52879 | 29.40195 | 34001 ft | 448 kts | 306° |
| 2026-04-29 12:37 | 31.56533 | 29.34270 | 34001 ft | 448 kts | 306° |
| 2026-04-29 12:38 | 31.60176 | 29.28348 | 34002 ft | 448 kts | 305° |
| 2026-04-29 12:38 | 31.63796 | 29.22443 | 34002 ft | 448 kts | 305° |
| 2026-04-29 12:39 | 31.67422 | 29.16521 | 34001 ft | 448 kts | 305° |
| 2026-04-29 12:39 | 31.71042 | 29.10599 | 34001 ft | 448 kts | 305° |
| 2026-04-29 12:40 | 31.74671 | 29.04653 | 34001 ft | 448 kts | 306° |
| 2026-04-29 12:40 | 31.78280 | 28.98734 | 34002 ft | 448 kts | 306° |
| 2026-04-29 12:41 | 31.81915 | 28.92763 | 34002 ft | 448 kts | 306° |
| 2026-04-29 12:41 | 31.85529 | 28.86819 | 34002 ft | 448 kts | 306° |
| 2026-04-29 12:42 | 31.89134 | 28.80878 | 34002 ft | 448 kts | 306° |
| 2026-04-29 12:42 | 31.92737 | 28.74932 | 34001 ft | 448 kts | 306° |
| 2026-04-29 12:43 | 31.96336 | 28.68984 | 34001 ft | 448 kts | 306° |
| 2026-04-29 12:43 | 31.99943 | 28.63012 | 34002 ft | 448 kts | 306° |
| 2026-04-29 12:44 | 32.03551 | 28.57031 | 34002 ft | 448 kts | 306° |
| 2026-04-29 12:44 | 32.07150 | 28.51054 | 34001 ft | 448 kts | 306° |
| 2026-04-29 12:45 | 32.10751 | 28.45065 | 34001 ft | 448 kts | 305° |
| 2026-04-29 12:45 | 32.14349 | 28.39071 | 34002 ft | 448 kts | 305° |
| 2026-04-29 12:46 | 32.17919 | 28.33113 | 34001 ft | 448 kts | 305° |
| 2026-04-29 12:46 | 32.21521 | 28.27095 | 34001 ft | 448 kts | 305° |
| 2026-04-29 12:47 | 32.25100 | 28.21105 | 34001 ft | 448 kts | 305° |
| 2026-04-29 12:47 | 32.28669 | 28.15121 | 34001 ft | 448 kts | 305° |
| 2026-04-29 12:48 | 32.32262 | 28.09089 | 34001 ft | 448 kts | 305° |
| 2026-04-29 12:48 | 32.35822 | 28.03103 | 34001 ft | 448 kts | 305° |
| 2026-04-29 12:49 | 32.39393 | 27.97087 | 34001 ft | 448 kts | 305° |
| 2026-04-29 12:49 | 32.42966 | 27.91059 | 34001 ft | 448 kts | 305° |
| 2026-04-29 12:50 | 32.46538 | 27.85022 | 34001 ft | 448 kts | 305° |
| 2026-04-29 12:50 | 32.50092 | 27.79008 | 34001 ft | 448 kts | 305° |
| 2026-04-29 12:51 | 32.53672 | 27.72940 | 34001 ft | 448 kts | 305° |
| 2026-04-29 12:51 | 32.57232 | 27.66896 | 34001 ft | 448 kts | 305° |
| 2026-04-29 12:52 | 32.60780 | 27.60861 | 34001 ft | 448 kts | 305° |
| 2026-04-29 12:52 | 32.64332 | 27.54812 | 34001 ft | 448 kts | 305° |
| 2026-04-29 12:53 | 32.67874 | 27.48768 | 34001 ft | 448 kts | 305° |
| 2026-04-29 12:53 | 32.71415 | 27.42716 | 34001 ft | 448 kts | 305° |
| 2026-04-29 12:54 | 32.74968 | 27.36620 | 34001 ft | 448 kts | 305° |
| 2026-04-29 12:54 | 32.78492 | 27.30563 | 34001 ft | 448 kts | 304° |
| 2026-04-29 12:55 | 32.82012 | 27.24503 | 34001 ft | 448 kts | 304° |
| 2026-04-29 12:55 | 32.85560 | 27.18386 | 34001 ft | 448 kts | 304° |
| 2026-04-29 12:56 | 32.89072 | 27.12320 | 34001 ft | 448 kts | 304° |
| 2026-04-29 12:56 | 32.92594 | 27.06225 | 34002 ft | 448 kts | 304° |
| 2026-04-29 12:57 | 32.96126 | 27.00106 | 34001 ft | 448 kts | 304° |
| 2026-04-29 12:57 | 32.99621 | 26.94033 | 34001 ft | 448 kts | 304° |
| 2026-04-29 12:58 | 33.03135 | 26.87910 | 34001 ft | 448 kts | 304° |
| 2026-04-29 12:58 | 33.06646 | 26.81783 | 34001 ft | 448 kts | 304° |
| 2026-04-29 12:59 | 33.10146 | 26.75665 | 34001 ft | 448 kts | 304° |
| 2026-04-29 12:59 | 33.13629 | 26.69568 | 34002 ft | 448 kts | 304° |
| 2026-04-29 13:00 | 33.17131 | 26.63425 | 34001 ft | 448 kts | 304° |
| 2026-04-29 13:00 | 33.20623 | 26.57290 | 34001 ft | 448 kts | 304° |
| 2026-04-29 13:01 | 33.24124 | 26.51130 | 34001 ft | 448 kts | 304° |
| 2026-04-29 13:01 | 33.27594 | 26.45015 | 34001 ft | 448 kts | 304° |
| 2026-04-29 13:02 | 33.31088 | 26.38847 | 34001 ft | 448 kts | 304° |
| 2026-04-29 13:02 | 33.34569 | 26.32690 | 34001 ft | 448 kts | 304° |
| 2026-04-29 13:03 | 33.38048 | 26.26528 | 34002 ft | 448 kts | 304° |
| 2026-04-29 13:03 | 33.41525 | 26.20359 | 34002 ft | 448 kts | 304° |
| 2026-04-29 13:04 | 33.44979 | 26.14221 | 34001 ft | 448 kts | 304° |
| 2026-04-29 13:04 | 33.48471 | 26.08004 | 34001 ft | 448 kts | 304° |
| 2026-04-29 13:05 | 33.51918 | 26.01858 | 34001 ft | 448 kts | 304° |
| 2026-04-29 13:05 | 33.55387 | 25.95660 | 34001 ft | 448 kts | 304° |
| 2026-04-29 13:06 | 33.58844 | 25.89474 | 34001 ft | 448 kts | 304° |
| 2026-04-29 13:06 | 33.62306 | 25.83270 | 34001 ft | 448 kts | 304° |
| 2026-04-29 13:07 | 33.65755 | 25.77076 | 34001 ft | 448 kts | 304° |
| 2026-04-29 13:07 | 33.69196 | 25.70888 | 34001 ft | 448 kts | 304° |
| 2026-04-29 13:08 | 33.72642 | 25.64681 | 34001 ft | 448 kts | 304° |
| 2026-04-29 13:08 | 33.76081 | 25.58475 | 34001 ft | 448 kts | 304° |
| 2026-04-29 13:09 | 33.79542 | 25.52218 | 34001 ft | 448 kts | 304° |
| 2026-04-29 13:09 | 33.82962 | 25.46025 | 34001 ft | 448 kts | 304° |
| 2026-04-29 13:10 | 33.86395 | 25.39799 | 34001 ft | 448 kts | 304° |
| 2026-04-29 13:10 | 33.89845 | 25.33529 | 34001 ft | 448 kts | 303° |
| 2026-04-29 13:11 | 33.93254 | 25.27325 | 34001 ft | 448 kts | 303° |
| 2026-04-29 13:11 | 33.96675 | 25.21088 | 34001 ft | 448 kts | 303° |
| 2026-04-29 13:12 | 34.00015 | 25.14745 | 33984 ft | 447 kts | 294° |
| 2026-04-29 13:12 | 34.02187 | 25.07745 | 33996 ft | 449 kts | 290° |
| 2026-04-29 13:13 | 34.04296 | 25.00745 | 34009 ft | 448 kts | 290° |
| 2026-04-29 13:13 | 34.06420 | 24.93665 | 34003 ft | 447 kts | 290° |
| 2026-04-29 13:14 | 34.08527 | 24.86622 | 34001 ft | 447 kts | 290° |
| 2026-04-29 13:14 | 34.10630 | 24.79577 | 34000 ft | 448 kts | 290° |
| 2026-04-29 13:15 | 34.12723 | 24.72549 | 34001 ft | 448 kts | 290° |
| 2026-04-29 13:15 | 34.14825 | 24.65471 | 34001 ft | 448 kts | 290° |
| 2026-04-29 13:16 | 34.16913 | 24.58428 | 34002 ft | 448 kts | 290° |
| 2026-04-29 13:16 | 34.19001 | 24.51366 | 34001 ft | 448 kts | 290° |
| 2026-04-29 13:17 | 34.21088 | 24.44287 | 34001 ft | 448 kts | 290° |
| 2026-04-29 13:17 | 34.23168 | 24.37217 | 34001 ft | 448 kts | 290° |
| 2026-04-29 13:18 | 34.25240 | 24.30157 | 34001 ft | 448 kts | 289° |
| 2026-04-29 13:18 | 34.27315 | 24.23069 | 34001 ft | 448 kts | 289° |
| 2026-04-29 13:19 | 34.29376 | 24.16011 | 34001 ft | 448 kts | 289° |
| 2026-04-29 13:19 | 34.31440 | 24.08925 | 34001 ft | 448 kts | 289° |
| 2026-04-29 13:20 | 34.33500 | 24.01838 | 34001 ft | 448 kts | 289° |
| 2026-04-29 13:20 | 34.35560 | 23.94732 | 34001 ft | 448 kts | 289° |
| 2026-04-29 13:21 | 34.37609 | 23.87643 | 34001 ft | 448 kts | 289° |
| 2026-04-29 13:21 | 34.39652 | 23.80560 | 34001 ft | 448 kts | 289° |
| 2026-04-29 13:22 | 34.41693 | 23.73468 | 34001 ft | 448 kts | 289° |
| 2026-04-29 13:22 | 34.43725 | 23.66388 | 34001 ft | 448 kts | 289° |
| 2026-04-29 13:23 | 34.45771 | 23.59242 | 34001 ft | 448 kts | 289° |
| 2026-04-29 13:23 | 34.47794 | 23.52157 | 34001 ft | 448 kts | 289° |
| 2026-04-29 13:24 | 34.49823 | 23.45035 | 34001 ft | 448 kts | 289° |
| 2026-04-29 13:24 | 34.51845 | 23.37918 | 34001 ft | 448 kts | 289° |
| 2026-04-29 13:25 | 34.53862 | 23.30800 | 34001 ft | 448 kts | 289° |
| 2026-04-29 13:25 | 34.56886 | 23.20096 | 34001 ft | 448 kts | 289° |
| 2026-04-29 13:26 | 34.58890 | 23.12981 | 34001 ft | 448 kts | 289° |
| 2026-04-29 13:26 | 34.60892 | 23.05855 | 34001 ft | 448 kts | 289° |
| 2026-04-29 13:27 | 34.62858 | 22.98683 | 33997 ft | 447 kts | 285° |
| 2026-04-29 13:27 | 34.64469 | 22.91426 | 33998 ft | 448 kts | 285° |
| 2026-04-29 13:28 | 34.66102 | 22.84158 | 34003 ft | 448 kts | 285° |
| 2026-04-29 13:28 | 34.67729 | 22.76902 | 34003 ft | 448 kts | 285° |
| 2026-04-29 13:29 | 34.69356 | 22.69620 | 34002 ft | 448 kts | 285° |
| 2026-04-29 13:29 | 34.70979 | 22.62339 | 34001 ft | 448 kts | 285° |
| 2026-04-29 13:30 | 34.72598 | 22.55055 | 34000 ft | 448 kts | 285° |
| 2026-04-29 13:30 | 34.74215 | 22.47754 | 34001 ft | 448 kts | 285° |
| 2026-04-29 13:31 | 34.75826 | 22.40460 | 34001 ft | 448 kts | 285° |
| 2026-04-29 13:31 | 34.77431 | 22.33173 | 34001 ft | 448 kts | 284° |
| 2026-04-29 13:32 | 34.79033 | 22.25872 | 34001 ft | 448 kts | 284° |
| 2026-04-29 13:32 | 34.80630 | 22.18571 | 34001 ft | 448 kts | 284° |
| 2026-04-29 13:33 | 34.82223 | 22.11267 | 34001 ft | 448 kts | 284° |
| 2026-04-29 13:33 | 34.83809 | 22.03973 | 34001 ft | 448 kts | 284° |
| 2026-04-29 13:34 | 34.85388 | 21.96691 | 34001 ft | 448 kts | 284° |
| 2026-04-29 13:34 | 34.86972 | 21.89356 | 34001 ft | 448 kts | 284° |
| 2026-04-29 13:35 | 34.88540 | 21.82081 | 34001 ft | 448 kts | 284° |
| 2026-04-29 13:35 | 34.90109 | 21.74770 | 34001 ft | 448 kts | 284° |
| 2026-04-29 13:36 | 34.91676 | 21.67450 | 34001 ft | 448 kts | 284° |
| 2026-04-29 13:36 | 34.93239 | 21.60123 | 34001 ft | 448 kts | 284° |
| 2026-04-29 13:37 | 34.94795 | 21.52806 | 34001 ft | 448 kts | 284° |
| 2026-04-29 13:37 | 34.96350 | 21.45474 | 34001 ft | 448 kts | 284° |
| 2026-04-29 13:38 | 34.97903 | 21.38121 | 34001 ft | 448 kts | 284° |
| 2026-04-29 13:38 | 34.99448 | 21.30789 | 34001 ft | 448 kts | 284° |
| 2026-04-29 13:39 | 35.00982 | 21.23481 | 34001 ft | 448 kts | 284° |
| 2026-04-29 13:39 | 35.02514 | 21.16160 | 34001 ft | 448 kts | 284° |
| 2026-04-29 13:40 | 35.04052 | 21.08786 | 34001 ft | 448 kts | 284° |
| 2026-04-29 13:40 | 35.05573 | 21.01470 | 34001 ft | 448 kts | 284° |
| 2026-04-29 13:41 | 35.07101 | 20.94094 | 34001 ft | 448 kts | 284° |
| 2026-04-29 13:41 | 35.08612 | 20.86782 | 34001 ft | 448 kts | 284° |
| 2026-04-29 13:42 | 35.10126 | 20.79425 | 34001 ft | 448 kts | 284° |
| 2026-04-29 13:42 | 35.11641 | 20.72042 | 34001 ft | 448 kts | 284° |
| 2026-04-29 13:43 | 35.13136 | 20.64730 | 34001 ft | 448 kts | 284° |
| 2026-04-29 13:43 | 35.14642 | 20.57342 | 34001 ft | 448 kts | 284° |
| 2026-04-29 13:44 | 35.16137 | 20.49982 | 34001 ft | 448 kts | 284° |
| 2026-04-29 13:44 | 35.17621 | 20.42653 | 34001 ft | 448 kts | 284° |
| 2026-04-29 13:45 | 35.19114 | 20.35256 | 34001 ft | 448 kts | 284° |
| 2026-04-29 13:45 | 35.20592 | 20.27905 | 34001 ft | 448 kts | 283° |
| 2026-04-29 13:46 | 35.22073 | 20.20518 | 34001 ft | 448 kts | 283° |
| 2026-04-29 13:46 | 35.23546 | 20.13146 | 34001 ft | 448 kts | 283° |
| 2026-04-29 13:47 | 35.25017 | 20.05752 | 34001 ft | 448 kts | 283° |
| 2026-04-29 13:47 | 35.26481 | 19.98374 | 34001 ft | 448 kts | 283° |
| 2026-04-29 13:48 | 35.27937 | 19.91007 | 34001 ft | 448 kts | 283° |
| 2026-04-29 13:48 | 35.29392 | 19.83625 | 34001 ft | 448 kts | 283° |
| 2026-04-29 13:49 | 35.30836 | 19.76270 | 34001 ft | 448 kts | 283° |
| 2026-04-29 13:49 | 35.32285 | 19.68868 | 34001 ft | 448 kts | 283° |
| 2026-04-29 13:50 | 35.33730 | 19.61458 | 34001 ft | 448 kts | 283° |
| 2026-04-29 13:50 | 35.35164 | 19.54076 | 34001 ft | 448 kts | 283° |
| 2026-04-29 13:51 | 35.36599 | 19.46666 | 34001 ft | 448 kts | 283° |
| 2026-04-29 13:51 | 35.38024 | 19.39282 | 34001 ft | 448 kts | 283° |
| 2026-04-29 13:52 | 35.39442 | 19.31905 | 34001 ft | 448 kts | 283° |
| 2026-04-29 13:52 | 35.40865 | 19.24478 | 34001 ft | 448 kts | 283° |
| 2026-04-29 13:53 | 35.42275 | 19.17094 | 34001 ft | 448 kts | 283° |
| 2026-04-29 13:53 | 35.43693 | 19.09639 | 34001 ft | 448 kts | 283° |
| 2026-04-29 13:54 | 35.45092 | 19.02261 | 34001 ft | 448 kts | 283° |
| 2026-04-29 13:54 | 35.46500 | 18.94811 | 34001 ft | 448 kts | 283° |
| 2026-04-29 13:55 | 35.47893 | 18.87404 | 34001 ft | 448 kts | 283° |
| 2026-04-29 13:55 | 35.49279 | 18.80016 | 34001 ft | 448 kts | 283° |
| 2026-04-29 13:56 | 35.50671 | 18.72570 | 34001 ft | 448 kts | 283° |
| 2026-04-29 13:56 | 35.52050 | 18.65161 | 34001 ft | 448 kts | 283° |
| 2026-04-29 13:57 | 35.53429 | 18.57727 | 34001 ft | 448 kts | 283° |
| 2026-04-29 13:57 | 35.54804 | 18.50289 | 34001 ft | 448 kts | 283° |
| 2026-04-29 13:58 | 35.56175 | 18.42848 | 34001 ft | 448 kts | 283° |
| 2026-04-29 13:58 | 35.57534 | 18.35441 | 34001 ft | 448 kts | 283° |
| 2026-04-29 13:59 | 35.58890 | 18.28019 | 34001 ft | 448 kts | 282° |
| 2026-04-29 13:59 | 35.60252 | 18.20541 | 34001 ft | 448 kts | 282° |
| 2026-04-29 14:00 | 35.61598 | 18.13123 | 34001 ft | 448 kts | 282° |
| 2026-04-29 14:00 | 35.62947 | 18.05666 | 34001 ft | 448 kts | 282° |
| 2026-04-29 14:01 | 35.64286 | 17.98226 | 34001 ft | 448 kts | 282° |
| 2026-04-29 14:01 | 35.65620 | 17.90793 | 34001 ft | 448 kts | 282° |
| 2026-04-29 14:02 | 35.66954 | 17.83332 | 34001 ft | 448 kts | 282° |
| 2026-04-29 14:02 | 35.68286 | 17.75849 | 34001 ft | 448 kts | 282° |
| 2026-04-29 14:03 | 35.69610 | 17.68389 | 34001 ft | 448 kts | 282° |
| 2026-04-29 14:03 | 35.70919 | 17.60981 | 34001 ft | 448 kts | 282° |
| 2026-04-29 14:04 | 35.72237 | 17.53495 | 34001 ft | 448 kts | 282° |
| 2026-04-29 14:04 | 35.73546 | 17.46034 | 34001 ft | 448 kts | 282° |
| 2026-04-29 14:05 | 35.74850 | 17.38570 | 34001 ft | 448 kts | 282° |
| 2026-04-29 14:05 | 35.76144 | 17.31128 | 34001 ft | 448 kts | 282° |
| 2026-04-29 14:06 | 35.77445 | 17.23626 | 34001 ft | 448 kts | 282° |
| 2026-04-29 14:06 | 35.78735 | 17.16158 | 34001 ft | 448 kts | 282° |
| 2026-04-29 14:07 | 35.80019 | 17.08690 | 34001 ft | 448 kts | 282° |
| 2026-04-29 14:07 | 35.81296 | 17.01235 | 34001 ft | 448 kts | 282° |
| 2026-04-29 14:08 | 35.82578 | 16.93723 | 34001 ft | 448 kts | 282° |
| 2026-04-29 14:08 | 35.83853 | 16.86225 | 34001 ft | 448 kts | 282° |
| 2026-04-29 14:09 | 35.85117 | 16.78757 | 34001 ft | 448 kts | 282° |
| 2026-04-29 14:09 | 35.86378 | 16.71280 | 34001 ft | 448 kts | 282° |
| 2026-04-29 14:10 | 35.87633 | 16.63808 | 34001 ft | 448 kts | 282° |
| 2026-04-29 14:10 | 35.88894 | 16.56272 | 34001 ft | 448 kts | 282° |
| 2026-04-29 14:11 | 35.90140 | 16.48791 | 34001 ft | 448 kts | 282° |
| 2026-04-29 14:11 | 35.91382 | 16.41306 | 34001 ft | 448 kts | 282° |
| 2026-04-29 14:12 | 35.92619 | 16.33820 | 34001 ft | 448 kts | 281° |
| 2026-04-29 14:12 | 35.93857 | 16.26302 | 34001 ft | 448 kts | 281° |
| 2026-04-29 14:13 | 35.95091 | 16.18772 | 34001 ft | 448 kts | 281° |
| 2026-04-29 14:13 | 35.96314 | 16.11278 | 34001 ft | 448 kts | 281° |
| 2026-04-29 14:14 | 35.97534 | 16.03776 | 34001 ft | 448 kts | 281° |
| 2026-04-29 14:14 | 35.98747 | 15.96280 | 34001 ft | 448 kts | 281° |
| 2026-04-29 14:15 | 35.99956 | 15.88780 | 34001 ft | 448 kts | 281° |
| 2026-04-29 14:15 | 36.01163 | 15.81263 | 34001 ft | 448 kts | 281° |
| 2026-04-29 14:16 | 36.02369 | 15.73720 | 34001 ft | 448 kts | 281° |
| 2026-04-29 14:16 | 36.03569 | 15.66188 | 34001 ft | 448 kts | 281° |
| 2026-04-29 14:17 | 36.04758 | 15.58683 | 34001 ft | 448 kts | 281° |
| 2026-04-29 14:17 | 36.05949 | 15.51136 | 34001 ft | 448 kts | 281° |
| 2026-04-29 14:18 | 36.07129 | 15.43635 | 34000 ft | 448 kts | 281° |
| 2026-04-29 14:18 | 36.08305 | 15.36120 | 34001 ft | 448 kts | 281° |
| 2026-04-29 14:19 | 36.09481 | 15.28571 | 34001 ft | 448 kts | 281° |
| 2026-04-29 14:19 | 36.10647 | 15.21060 | 34001 ft | 448 kts | 281° |
| 2026-04-29 14:20 | 36.11811 | 15.13522 | 34001 ft | 448 kts | 281° |
| 2026-04-29 14:20 | 36.12970 | 15.05991 | 34001 ft | 448 kts | 281° |
| 2026-04-29 14:21 | 36.14130 | 14.98419 | 34001 ft | 448 kts | 281° |
| 2026-04-29 14:21 | 36.15277 | 14.90895 | 34001 ft | 448 kts | 281° |
| 2026-04-29 14:22 | 36.16427 | 14.83317 | 34001 ft | 448 kts | 281° |
| 2026-04-29 14:22 | 36.17560 | 14.75822 | 34001 ft | 448 kts | 281° |
| 2026-04-29 14:23 | 36.18700 | 14.68245 | 34001 ft | 448 kts | 281° |
| 2026-04-29 14:23 | 36.19832 | 14.60689 | 34001 ft | 448 kts | 281° |
| 2026-04-29 14:24 | 36.20956 | 14.53153 | 34001 ft | 448 kts | 281° |
| 2026-04-29 14:24 | 36.22076 | 14.45604 | 34001 ft | 448 kts | 281° |
| 2026-04-29 14:25 | 36.23196 | 14.38026 | 34001 ft | 448 kts | 281° |
| 2026-04-29 14:25 | 36.24308 | 14.30473 | 34001 ft | 448 kts | 280° |
| 2026-04-29 14:26 | 36.25415 | 14.22912 | 34001 ft | 448 kts | 280° |
| 2026-04-29 14:26 | 36.26520 | 14.15332 | 34001 ft | 448 kts | 280° |
| 2026-04-29 14:27 | 36.27618 | 14.07762 | 34001 ft | 448 kts | 280° |
| 2026-04-29 14:28 | 36.29252 | 13.96434 | 34001 ft | 448 kts | 280° |
| 2026-04-29 14:28 | 36.30338 | 13.88860 | 34001 ft | 448 kts | 280° |
| 2026-04-29 14:29 | 36.31416 | 13.81311 | 34001 ft | 448 kts | 280° |
| 2026-04-29 14:29 | 36.32498 | 13.73697 | 34001 ft | 448 kts | 280° |
| 2026-04-29 14:30 | 36.33563 | 13.66164 | 34001 ft | 448 kts | 280° |
| 2026-04-29 14:30 | 36.34630 | 13.58585 | 34001 ft | 448 kts | 280° |
| 2026-04-29 14:31 | 36.35697 | 13.50967 | 34001 ft | 448 kts | 280° |
| 2026-04-29 14:31 | 36.36752 | 13.43403 | 34001 ft | 448 kts | 280° |
| 2026-04-29 14:32 | 36.37800 | 13.35845 | 34001 ft | 448 kts | 280° |
| 2026-04-29 14:32 | 36.38851 | 13.28229 | 34001 ft | 448 kts | 279° |
| 2026-04-29 14:33 | 36.39896 | 13.20626 | 34001 ft | 448 kts | 279° |
| 2026-04-29 14:33 | 36.40932 | 13.13050 | 34001 ft | 448 kts | 279° |
| 2026-04-29 14:34 | 36.41961 | 13.05483 | 34001 ft | 448 kts | 279° |
| 2026-04-29 14:34 | 36.42989 | 12.97896 | 34001 ft | 448 kts | 279° |
| 2026-04-29 14:35 | 36.44017 | 12.90264 | 34001 ft | 448 kts | 279° |
| 2026-04-29 14:35 | 36.45034 | 12.82676 | 34001 ft | 448 kts | 279° |
| 2026-04-29 14:36 | 36.46050 | 12.75056 | 34001 ft | 448 kts | 279° |
| 2026-04-29 14:36 | 36.47058 | 12.67465 | 34001 ft | 448 kts | 279° |
| 2026-04-29 14:37 | 36.48063 | 12.59848 | 34001 ft | 448 kts | 279° |
| 2026-04-29 14:37 | 36.49058 | 12.52281 | 34001 ft | 448 kts | 279° |
| 2026-04-29 14:38 | 36.50057 | 12.44633 | 34001 ft | 448 kts | 279° |
| 2026-04-29 14:38 | 36.51047 | 12.37024 | 34001 ft | 448 kts | 279° |
| 2026-04-29 14:39 | 36.52032 | 12.29405 | 34001 ft | 448 kts | 279° |
| 2026-04-29 14:39 | 36.53009 | 12.21813 | 34001 ft | 448 kts | 279° |
| 2026-04-29 14:40 | 36.53987 | 12.14178 | 34001 ft | 447 kts | 279° |
| 2026-04-29 14:40 | 36.54958 | 12.06558 | 34001 ft | 447 kts | 279° |
| 2026-04-29 14:41 | 36.55920 | 11.98963 | 34001 ft | 447 kts | 279° |
| 2026-04-29 14:41 | 36.56882 | 11.91329 | 34001 ft | 447 kts | 279° |
| 2026-04-29 14:42 | 36.57838 | 11.83700 | 34001 ft | 448 kts | 279° |
| 2026-04-29 14:42 | 36.58785 | 11.76111 | 34001 ft | 447 kts | 279° |
| 2026-04-29 14:43 | 36.59735 | 11.68446 | 34001 ft | 447 kts | 279° |
| 2026-04-29 14:43 | 36.60674 | 11.60836 | 34001 ft | 447 kts | 279° |
| 2026-04-29 14:44 | 36.61609 | 11.53215 | 34001 ft | 447 kts | 279° |
| 2026-04-29 14:44 | 36.62809 | 11.45625 | 34011 ft | 447 kts | 284° |
| 2026-04-29 14:45 | 36.64233 | 11.38110 | 33999 ft | 448 kts | 283° |
| 2026-04-29 14:45 | 36.65635 | 11.30616 | 33998 ft | 448 kts | 283° |
| 2026-04-29 14:46 | 36.67034 | 11.23101 | 34000 ft | 447 kts | 283° |
| 2026-04-29 14:46 | 36.68439 | 11.15529 | 34002 ft | 448 kts | 283° |
| 2026-04-29 14:47 | 36.69830 | 11.07999 | 34002 ft | 447 kts | 283° |
| 2026-04-29 14:47 | 36.71210 | 11.00501 | 34002 ft | 447 kts | 283° |
| 2026-04-29 14:48 | 36.72594 | 10.92941 | 34001 ft | 447 kts | 283° |
| 2026-04-29 14:48 | 36.73969 | 10.85405 | 34001 ft | 447 kts | 283° |
| 2026-04-29 14:49 | 36.75339 | 10.77861 | 34001 ft | 447 kts | 283° |
| 2026-04-29 14:49 | 36.76707 | 10.70308 | 34001 ft | 447 kts | 283° |
| 2026-04-29 14:50 | 36.78068 | 10.62762 | 34001 ft | 447 kts | 283° |
| 2026-04-29 14:50 | 36.79419 | 10.55244 | 34001 ft | 447 kts | 283° |
| 2026-04-29 14:51 | 36.80776 | 10.47674 | 34001 ft | 447 kts | 283° |
| 2026-04-29 14:51 | 36.82123 | 10.40122 | 34001 ft | 447 kts | 283° |
| 2026-04-29 14:52 | 36.83471 | 10.32535 | 34001 ft | 447 kts | 282° |
| 2026-04-29 14:52 | 36.84804 | 10.25003 | 34001 ft | 447 kts | 282° |
| 2026-04-29 14:52 | 36.85119 | 10.21165 | 33995 ft | 446 kts | 268° |
| 2026-04-29 14:53 | 36.85049 | 10.17279 | 34039 ft | 447 kts | 269° |
| 2026-04-29 14:53 | 36.84942 | 10.09555 | 34006 ft | 448 kts | 269° |
| 2026-04-29 14:54 | 36.84825 | 10.01802 | 34001 ft | 447 kts | 269° |
| 2026-04-29 14:54 | 36.84702 | 9.94049 | 34000 ft | 447 kts | 269° |
| 2026-04-29 14:55 | 36.84575 | 9.86300 | 34001 ft | 448 kts | 269° |
| 2026-04-29 14:55 | 36.84442 | 9.78580 | 34001 ft | 448 kts | 269° |
| 2026-04-29 14:56 | 36.84304 | 9.70828 | 34002 ft | 447 kts | 269° |
| 2026-04-29 14:56 | 36.84163 | 9.63115 | 34001 ft | 447 kts | 269° |
| 2026-04-29 14:57 | 36.84014 | 9.55348 | 34001 ft | 447 kts | 269° |
| 2026-04-29 14:57 | 36.83862 | 9.47622 | 34001 ft | 447 kts | 269° |
| 2026-04-29 14:58 | 36.83703 | 9.39876 | 34001 ft | 448 kts | 269° |
| 2026-04-29 14:58 | 36.83536 | 9.32133 | 34001 ft | 447 kts | 268° |
| 2026-04-29 14:59 | 36.83364 | 9.24390 | 34001 ft | 447 kts | 268° |
| 2026-04-29 14:59 | 36.83187 | 9.16654 | 34001 ft | 447 kts | 268° |
| 2026-04-29 15:00 | 36.83005 | 9.08919 | 34001 ft | 447 kts | 268° |
| 2026-04-29 15:00 | 36.82814 | 9.01183 | 34001 ft | 447 kts | 268° |
| 2026-04-29 15:01 | 36.82807 | 8.93459 | 34005 ft | 447 kts | 272° |
| 2026-04-29 15:01 | 36.82994 | 8.85718 | 33998 ft | 448 kts | 271° |
| 2026-04-29 15:02 | 36.83167 | 8.77999 | 33999 ft | 448 kts | 271° |
| 2026-04-29 15:02 | 36.83334 | 8.70279 | 34000 ft | 447 kts | 271° |
| 2026-04-29 15:03 | 36.83452 | 8.62514 | 34001 ft | 447 kts | 270° |
| 2026-04-29 15:03 | 36.83452 | 8.54806 | 34001 ft | 448 kts | 270° |
| 2026-04-29 15:04 | 36.83451 | 8.47045 | 34001 ft | 447 kts | 270° |
| 2026-04-29 15:04 | 36.83445 | 8.39281 | 34001 ft | 447 kts | 270° |
| 2026-04-29 15:05 | 36.83435 | 8.31569 | 34001 ft | 447 kts | 270° |
| 2026-04-29 15:05 | 36.83419 | 8.23813 | 34001 ft | 447 kts | 270° |
| 2026-04-29 15:06 | 36.83398 | 8.16089 | 34001 ft | 447 kts | 270° |
| 2026-04-29 15:06 | 36.83373 | 8.08370 | 34001 ft | 447 kts | 270° |
| 2026-04-29 15:07 | 36.83342 | 8.00590 | 34001 ft | 447 kts | 270° |
| 2026-04-29 15:07 | 36.83306 | 7.92868 | 34001 ft | 447 kts | 270° |
| 2026-04-29 15:08 | 36.83265 | 7.85148 | 34001 ft | 447 kts | 270° |
| 2026-04-29 15:08 | 36.83204 | 7.77421 | 34001 ft | 447 kts | 269° |
| 2026-04-29 15:09 | 36.83122 | 7.69633 | 34001 ft | 447 kts | 269° |
| 2026-04-29 15:09 | 36.83035 | 7.61877 | 34001 ft | 447 kts | 269° |
| 2026-04-29 15:10 | 36.82944 | 7.54187 | 34001 ft | 447 kts | 269° |
| 2026-04-29 15:10 | 36.82848 | 7.46421 | 34001 ft | 447 kts | 269° |
| 2026-04-29 15:11 | 36.82746 | 7.38666 | 34001 ft | 447 kts | 269° |
| 2026-04-29 15:11 | 36.82640 | 7.30975 | 34001 ft | 447 kts | 269° |
| 2026-04-29 15:12 | 36.82529 | 7.23240 | 34001 ft | 447 kts | 269° |
| 2026-04-29 15:12 | 36.82411 | 7.15456 | 34001 ft | 447 kts | 269° |
| 2026-04-29 15:13 | 36.82290 | 7.07738 | 34001 ft | 447 kts | 269° |
| 2026-04-29 15:13 | 36.82164 | 7.00027 | 34001 ft | 447 kts | 269° |
| 2026-04-29 15:14 | 36.82032 | 6.92273 | 34001 ft | 447 kts | 269° |
| 2026-04-29 15:14 | 36.81895 | 6.84523 | 34001 ft | 447 kts | 269° |
| 2026-04-29 15:15 | 36.81754 | 6.76797 | 34001 ft | 447 kts | 269° |
| 2026-04-29 15:15 | 36.81607 | 6.69067 | 34001 ft | 447 kts | 269° |
| 2026-04-29 15:16 | 36.81456 | 6.61314 | 34001 ft | 447 kts | 269° |
| 2026-04-29 15:16 | 36.81299 | 6.53569 | 34001 ft | 447 kts | 269° |
| 2026-04-29 15:17 | 36.81137 | 6.45852 | 34001 ft | 447 kts | 269° |
| 2026-04-29 15:17 | 36.80971 | 6.38135 | 34001 ft | 447 kts | 269° |
| 2026-04-29 15:18 | 36.80799 | 6.30393 | 34001 ft | 447 kts | 268° |
| 2026-04-29 15:18 | 36.80623 | 6.22655 | 34001 ft | 447 kts | 268° |
| 2026-04-29 15:19 | 36.80441 | 6.14909 | 34001 ft | 447 kts | 268° |
| 2026-04-29 15:19 | 36.80254 | 6.07176 | 34001 ft | 447 kts | 268° |
| 2026-04-29 15:20 | 36.80063 | 5.99448 | 34001 ft | 447 kts | 268° |
| 2026-04-29 15:20 | 36.79866 | 5.91725 | 34001 ft | 447 kts | 268° |
| 2026-04-29 15:21 | 36.79406 | 5.83997 | 34008 ft | 447 kts | 263° |
| 2026-04-29 15:21 | 36.78639 | 5.76354 | 33998 ft | 448 kts | 263° |
| 2026-04-29 15:22 | 36.77863 | 5.68649 | 33999 ft | 447 kts | 263° |
| 2026-04-29 15:22 | 36.77089 | 5.61009 | 34000 ft | 447 kts | 263° |
| 2026-04-29 15:23 | 36.76304 | 5.53313 | 34002 ft | 447 kts | 263° |
| 2026-04-29 15:23 | 36.75518 | 5.45664 | 34002 ft | 447 kts | 263° |
| 2026-04-29 15:24 | 36.74724 | 5.37975 | 34002 ft | 447 kts | 263° |
| 2026-04-29 15:24 | 36.73928 | 5.30319 | 34001 ft | 447 kts | 262° |
| 2026-04-29 15:25 | 36.73124 | 5.22637 | 34001 ft | 447 kts | 262° |
| 2026-04-29 15:25 | 36.72319 | 5.14997 | 34001 ft | 447 kts | 262° |
| 2026-04-29 15:26 | 36.71511 | 5.07306 | 33999 ft | 447 kts | 264° |
| 2026-04-29 15:26 | 36.71235 | 4.99599 | 34005 ft | 448 kts | 267° |
| 2026-04-29 15:27 | 36.70950 | 4.91915 | 34004 ft | 448 kts | 267° |
| 2026-04-29 15:27 | 36.70653 | 4.84200 | 34002 ft | 447 kts | 267° |
| 2026-04-29 15:28 | 36.70350 | 4.76466 | 34000 ft | 447 kts | 267° |
| 2026-04-29 15:28 | 36.70042 | 4.68753 | 34000 ft | 447 kts | 267° |
| 2026-04-29 15:29 | 36.69728 | 4.60995 | 34000 ft | 447 kts | 267° |
| 2026-04-29 15:30 | 36.69087 | 4.45574 | 34001 ft | 447 kts | 267° |
| 2026-04-29 15:30 | 36.68760 | 4.37858 | 34001 ft | 447 kts | 267° |
| 2026-04-29 15:31 | 36.68428 | 4.30162 | 34001 ft | 447 kts | 266° |
| 2026-04-29 15:31 | 36.68090 | 4.22451 | 34001 ft | 447 kts | 266° |
| 2026-04-29 15:32 | 36.67748 | 4.14764 | 34001 ft | 447 kts | 266° |
| 2026-04-29 15:32 | 36.67400 | 4.07027 | 34001 ft | 447 kts | 266° |
| 2026-04-29 15:33 | 36.67048 | 3.99348 | 34001 ft | 447 kts | 266° |
| 2026-04-29 15:33 | 36.66690 | 3.91624 | 34001 ft | 447 kts | 266° |
| 2026-04-29 15:34 | 36.66326 | 3.83891 | 34001 ft | 447 kts | 266° |
| 2026-04-29 15:34 | 36.65961 | 3.76221 | 34001 ft | 447 kts | 266° |
| 2026-04-29 15:35 | 36.65587 | 3.68493 | 34001 ft | 447 kts | 266° |
| 2026-04-29 15:35 | 36.65210 | 3.60775 | 34001 ft | 447 kts | 267° |
| 2026-04-29 15:35 | 36.65344 | 3.56927 | 33996 ft | 446 kts | 278° |
| 2026-04-29 15:36 | 36.65776 | 3.53116 | 34031 ft | 447 kts | 278° |
| 2026-04-29 15:36 | 36.66594 | 3.45438 | 34007 ft | 448 kts | 278° |
| 2026-04-29 15:37 | 36.67403 | 3.37779 | 34002 ft | 447 kts | 278° |
| 2026-04-29 15:37 | 36.68204 | 3.30152 | 34000 ft | 447 kts | 277° |
| 2026-04-29 15:38 | 36.68986 | 3.22494 | 33995 ft | 447 kts | 274° |
| 2026-04-29 15:38 | 36.68864 | 3.18634 | 34019 ft | 446 kts | 263° |
| 2026-04-29 15:38 | 36.68755 | 3.14778 | 34000 ft | 447 kts | 277° |
| 2026-04-29 15:38 | 36.69514 | 3.11033 | 34038 ft | 447 kts | 290° |
| 2026-04-29 15:39 | 36.70349 | 3.07345 | 34027 ft | 449 kts | 281° |
| 2026-04-29 15:39 | 36.71329 | 2.99682 | 34004 ft | 449 kts | 278° |
| 2026-04-29 15:40 | 36.72139 | 2.92015 | 34002 ft | 447 kts | 277° |
| 2026-04-29 15:40 | 36.72921 | 2.84329 | 34001 ft | 447 kts | 277° |
| 2026-04-29 15:41 | 36.73692 | 2.76674 | 34001 ft | 448 kts | 277° |
| 2026-04-29 15:41 | 36.74458 | 2.69028 | 34001 ft | 447 kts | 277° |
| 2026-04-29 15:42 | 36.75223 | 2.61326 | 34001 ft | 447 kts | 277° |
| 2026-04-29 15:42 | 36.75980 | 2.53666 | 34001 ft | 447 kts | 277° |
| 2026-04-29 15:43 | 36.76732 | 2.46004 | 34001 ft | 447 kts | 277° |
| 2026-04-29 15:43 | 36.77481 | 2.38310 | 34001 ft | 447 kts | 277° |
| 2026-04-29 15:44 | 36.78226 | 2.30609 | 34001 ft | 447 kts | 276° |
| 2026-04-29 15:44 | 36.78961 | 2.22965 | 34001 ft | 447 kts | 276° |
| 2026-04-29 15:45 | 36.79697 | 2.15256 | 34001 ft | 447 kts | 276° |
| 2026-04-29 15:45 | 36.80423 | 2.07587 | 34001 ft | 447 kts | 276° |
| 2026-04-29 15:46 | 36.81148 | 1.99893 | 34001 ft | 447 kts | 276° |
| 2026-04-29 15:46 | 36.81864 | 1.92221 | 34001 ft | 447 kts | 276° |
| 2026-04-29 15:47 | 36.82578 | 1.84530 | 34001 ft | 447 kts | 276° |
| 2026-04-29 15:47 | 36.83288 | 1.76825 | 34001 ft | 447 kts | 276° |
| 2026-04-29 15:48 | 36.83990 | 1.69155 | 34001 ft | 447 kts | 276° |
| 2026-04-29 15:48 | 36.84686 | 1.61488 | 34001 ft | 447 kts | 276° |
| 2026-04-29 15:49 | 36.85382 | 1.53773 | 34001 ft | 447 kts | 276° |
| 2026-04-29 15:49 | 36.86070 | 1.46081 | 34001 ft | 447 kts | 276° |
| 2026-04-29 15:50 | 36.86751 | 1.38417 | 34001 ft | 447 kts | 276° |
| 2026-04-29 15:50 | 36.87433 | 1.30686 | 34001 ft | 447 kts | 276° |
| 2026-04-29 15:51 | 36.88107 | 1.22985 | 34001 ft | 447 kts | 276° |
| 2026-04-29 15:51 | 36.88772 | 1.15324 | 34001 ft | 447 kts | 276° |
| 2026-04-29 15:52 | 36.89439 | 1.07588 | 34001 ft | 447 kts | 276° |
| 2026-04-29 15:52 | 36.90096 | 0.99907 | 34001 ft | 447 kts | 276° |
| 2026-04-29 15:53 | 36.90749 | 0.92209 | 34001 ft | 447 kts | 276° |
| 2026-04-29 15:53 | 36.91400 | 0.84483 | 34001 ft | 447 kts | 276° |
| 2026-04-29 15:54 | 36.92045 | 0.76761 | 34001 ft | 447 kts | 276° |
| 2026-04-29 15:54 | 36.92683 | 0.69061 | 34001 ft | 447 kts | 276° |
| 2026-04-29 15:55 | 36.93316 | 0.61370 | 34001 ft | 447 kts | 276° |
| 2026-04-29 15:55 | 36.93943 | 0.53678 | 34001 ft | 447 kts | 276° |
| 2026-04-29 15:56 | 36.94569 | 0.45942 | 34001 ft | 447 kts | 276° |
| 2026-04-29 15:56 | 36.95188 | 0.38229 | 34001 ft | 447 kts | 276° |
| 2026-04-29 15:57 | 36.95802 | 0.30527 | 34001 ft | 447 kts | 275° |
| 2026-04-29 15:57 | 36.96410 | 0.22823 | 34001 ft | 447 kts | 275° |
| 2026-04-29 15:58 | 36.97015 | 0.15098 | 34001 ft | 447 kts | 275° |
| 2026-04-29 15:58 | 36.97612 | 0.07398 | 34001 ft | 447 kts | 275° |
| 2026-04-29 15:59 | 36.98210 | -0.00368 | 34001 ft | 447 kts | 275° |
| 2026-04-29 15:59 | 36.98799 | -0.08090 | 34001 ft | 447 kts | 275° |
| 2026-04-29 16:00 | 36.99381 | -0.15779 | 34001 ft | 447 kts | 275° |
| 2026-04-29 16:00 | 36.99960 | -0.23507 | 34001 ft | 447 kts | 275° |
| 2026-04-29 16:01 | 37.00534 | -0.31230 | 34001 ft | 447 kts | 275° |
| 2026-04-29 16:01 | 37.01103 | -0.38950 | 34001 ft | 447 kts | 275° |
| 2026-04-29 16:02 | 37.01667 | -0.46679 | 34001 ft | 447 kts | 275° |
| 2026-04-29 16:02 | 37.02224 | -0.54378 | 34001 ft | 447 kts | 275° |
| 2026-04-29 16:03 | 37.02780 | -0.62127 | 34001 ft | 447 kts | 275° |
| 2026-04-29 16:03 | 37.03328 | -0.69851 | 34001 ft | 447 kts | 275° |
| 2026-04-29 16:04 | 37.03871 | -0.77564 | 34001 ft | 447 kts | 275° |
| 2026-04-29 16:04 | 37.04410 | -0.85296 | 34001 ft | 447 kts | 275° |
| 2026-04-29 16:05 | 37.04946 | -0.93065 | 34001 ft | 447 kts | 275° |
| 2026-04-29 16:05 | 37.05474 | -1.00771 | 34001 ft | 447 kts | 275° |
| 2026-04-29 16:06 | 37.05998 | -1.08512 | 34001 ft | 447 kts | 275° |
| 2026-04-29 16:06 | 37.06515 | -1.16224 | 34001 ft | 447 kts | 275° |
| 2026-04-29 16:07 | 37.07029 | -1.23955 | 34001 ft | 447 kts | 275° |
| 2026-04-29 16:07 | 37.07538 | -1.31695 | 34001 ft | 447 kts | 275° |
| 2026-04-29 16:08 | 37.08042 | -1.39439 | 34001 ft | 447 kts | 275° |
| 2026-04-29 16:08 | 37.08542 | -1.47193 | 34001 ft | 447 kts | 275° |
| 2026-04-29 16:09 | 37.09034 | -1.54906 | 34001 ft | 447 kts | 275° |
| 2026-04-29 16:09 | 37.09523 | -1.62652 | 34001 ft | 447 kts | 275° |
| 2026-04-29 16:10 | 37.10009 | -1.70433 | 34001 ft | 447 kts | 274° |
| 2026-04-29 16:10 | 37.10486 | -1.78143 | 34001 ft | 447 kts | 274° |
| 2026-04-29 16:11 | 37.10961 | -1.85921 | 34001 ft | 447 kts | 274° |
| 2026-04-29 16:11 | 37.11428 | -1.93635 | 34001 ft | 447 kts | 274° |
| 2026-04-29 16:12 | 37.11892 | -2.01388 | 34001 ft | 447 kts | 274° |
| 2026-04-29 16:12 | 37.12349 | -2.09112 | 34001 ft | 447 kts | 274° |
| 2026-04-29 16:13 | 37.12804 | -2.16893 | 34000 ft | 447 kts | 274° |
| 2026-04-29 16:13 | 37.13253 | -2.24644 | 34000 ft | 447 kts | 274° |
| 2026-04-29 16:14 | 37.13696 | -2.32375 | 34000 ft | 447 kts | 274° |
| 2026-04-29 16:14 | 37.14134 | -2.40135 | 34000 ft | 447 kts | 274° |
| 2026-04-29 16:15 | 37.14568 | -2.47892 | 34000 ft | 447 kts | 274° |
| 2026-04-29 16:15 | 37.14996 | -2.55640 | 34000 ft | 447 kts | 274° |
| 2026-04-29 16:16 | 37.15419 | -2.63382 | 34000 ft | 447 kts | 274° |
| 2026-04-29 16:16 | 37.15838 | -2.71158 | 34000 ft | 447 kts | 274° |
| 2026-04-29 16:17 | 37.16250 | -2.78896 | 34000 ft | 447 kts | 274° |
| 2026-04-29 16:17 | 37.16658 | -2.86659 | 34000 ft | 447 kts | 274° |
| 2026-04-29 16:18 | 37.17061 | -2.94409 | 34000 ft | 447 kts | 274° |
| 2026-04-29 16:18 | 37.17458 | -3.02155 | 34000 ft | 447 kts | 274° |
| 2026-04-29 16:19 | 37.17851 | -3.09897 | 34000 ft | 447 kts | 274° |
| 2026-04-29 16:19 | 37.18238 | -3.17660 | 34000 ft | 447 kts | 274° |
| 2026-04-29 16:20 | 37.18621 | -3.25414 | 34000 ft | 447 kts | 274° |
| 2026-04-29 16:20 | 37.19000 | -3.33198 | 34000 ft | 447 kts | 274° |
| 2026-04-29 16:21 | 37.19371 | -3.40933 | 34000 ft | 447 kts | 274° |
| 2026-04-29 16:21 | 37.19740 | -3.48719 | 34000 ft | 447 kts | 274° |
| 2026-04-29 16:22 | 37.20101 | -3.56453 | 34000 ft | 447 kts | 274° |
| 2026-04-29 16:22 | 37.20460 | -3.64252 | 34000 ft | 447 kts | 274° |
| 2026-04-29 16:23 | 37.20810 | -3.71971 | 34001 ft | 447 kts | 273° |
| 2026-04-29 16:23 | 37.21159 | -3.79761 | 34001 ft | 447 kts | 273° |
| 2026-04-29 16:24 | 37.21500 | -3.87510 | 34001 ft | 447 kts | 273° |
| 2026-04-29 16:24 | 37.21838 | -3.95289 | 34001 ft | 447 kts | 273° |
| 2026-04-29 16:25 | 37.22171 | -4.03066 | 34001 ft | 447 kts | 273° |
| 2026-04-29 16:25 | 37.22498 | -4.10829 | 34001 ft | 447 kts | 273° |
| 2026-04-29 16:26 | 37.22819 | -4.18590 | 34001 ft | 447 kts | 273° |
| 2026-04-29 16:26 | 37.23136 | -4.26367 | 34001 ft | 447 kts | 273° |
| 2026-04-29 16:27 | 37.23447 | -4.34123 | 34001 ft | 447 kts | 273° |
| 2026-04-29 16:27 | 37.23753 | -4.41853 | 34001 ft | 447 kts | 273° |
| 2026-04-29 16:28 | 37.24056 | -4.49653 | 34001 ft | 447 kts | 273° |
| 2026-04-29 16:28 | 37.24353 | -4.57438 | 34001 ft | 447 kts | 273° |
| 2026-04-29 16:29 | 37.24643 | -4.65178 | 34001 ft | 447 kts | 272° |
| 2026-04-29 16:29 | 37.24929 | -4.72943 | 34001 ft | 447 kts | 272° |
| 2026-04-29 16:30 | 37.25212 | -4.80754 | 34001 ft | 447 kts | 272° |
| 2026-04-29 16:30 | 37.25487 | -4.88480 | 34001 ft | 447 kts | 272° |
| 2026-04-29 16:31 | 37.25758 | -4.96265 | 34001 ft | 447 kts | 272° |
| 2026-04-29 16:31 | 37.26025 | -5.04076 | 34001 ft | 447 kts | 272° |
| 2026-04-29 16:32 | 37.26286 | -5.11834 | 34001 ft | 447 kts | 272° |
| 2026-04-29 16:32 | 37.26541 | -5.19597 | 34001 ft | 447 kts | 272° |
| 2026-04-29 16:33 | 37.26915 | -5.31241 | 34001 ft | 447 kts | 272° |
| 2026-04-29 16:33 | 37.27159 | -5.39023 | 34001 ft | 447 kts | 272° |
| 2026-04-29 16:34 | 37.27396 | -5.46786 | 34001 ft | 447 kts | 272° |
| 2026-04-29 16:34 | 37.27631 | -5.54604 | 34001 ft | 447 kts | 272° |
| 2026-04-29 16:35 | 37.27858 | -5.62371 | 34001 ft | 447 kts | 272° |
| 2026-04-29 16:35 | 37.28081 | -5.70137 | 34001 ft | 447 kts | 272° |
| 2026-04-29 16:36 | 37.28299 | -5.77930 | 34001 ft | 447 kts | 272° |
| 2026-04-29 16:36 | 37.28511 | -5.85691 | 34001 ft | 447 kts | 272° |
| 2026-04-29 16:37 | 37.28719 | -5.93471 | 34001 ft | 447 kts | 272° |
| 2026-04-29 16:37 | 37.28889 | -5.99983 | 34001 ft | 447 kts | 272° |
| 2026-04-29 16:38 | 37.29118 | -6.09024 | 34001 ft | 447 kts | 272° |
| 2026-04-29 16:38 | 37.29311 | -6.16789 | 34001 ft | 447 kts | 272° |
| 2026-04-29 16:39 | 37.29499 | -6.24621 | 34001 ft | 447 kts | 272° |
| 2026-04-29 16:39 | 37.29659 | -6.32400 | 33998 ft | 447 kts | 269° |
| 2026-04-29 16:40 | 37.29201 | -6.36231 | 33996 ft | 446 kts | 251° |
| 2026-04-29 16:40 | 37.27866 | -6.39712 | 34047 ft | 446 kts | 235° |
| 2026-04-29 16:40 | 37.25780 | -6.42563 | 34021 ft | 448 kts | 218° |
| 2026-04-29 16:40 | 37.23126 | -6.44522 | 34037 ft | 448 kts | 201° |
| 2026-04-29 16:41 | 37.20112 | -6.45441 | 34032 ft | 449 kts | 184° |
| 2026-04-29 16:41 | 37.16999 | -6.45223 | 34031 ft | 449 kts | 167° |
| 2026-04-29 16:41 | 37.14078 | -6.43883 | 34034 ft | 449 kts | 150° |
| 2026-04-29 16:41 | 37.11570 | -6.41584 | 34041 ft | 448 kts | 138° |
| 2026-04-29 16:42 | 37.06957 | -6.36349 | 33990 ft | 448 kts | 138° |
| 2026-04-29 16:42 | 37.02347 | -6.31107 | 34001 ft | 447 kts | 138° |
| 2026-04-29 16:43 | 36.97749 | -6.25885 | 34003 ft | 447 kts | 138° |
| 2026-04-29 16:43 | 36.93174 | -6.20695 | 34002 ft | 447 kts | 138° |
| 2026-04-29 16:44 | 36.88542 | -6.15446 | 34002 ft | 447 kts | 137° |
| 2026-04-29 16:44 | 36.83955 | -6.10255 | 34002 ft | 447 kts | 137° |
| 2026-04-29 16:45 | 36.79357 | -6.05056 | 34001 ft | 447 kts | 137° |
| 2026-04-29 16:45 | 36.74742 | -5.99845 | 34001 ft | 447 kts | 137° |
| 2026-04-29 16:46 | 36.70145 | -5.94660 | 34001 ft | 447 kts | 137° |
| 2026-04-29 16:46 | 36.65528 | -5.89457 | 34001 ft | 447 kts | 137° |
| 2026-04-29 16:47 | 36.60916 | -5.84267 | 34001 ft | 447 kts | 137° |
| 2026-04-29 16:47 | 36.56326 | -5.79107 | 34001 ft | 447 kts | 137° |
| 2026-04-29 16:48 | 36.51732 | -5.73947 | 34001 ft | 447 kts | 137° |
| 2026-04-29 16:48 | 36.47112 | -5.68766 | 34001 ft | 447 kts | 137° |
| 2026-04-29 16:49 | 36.42479 | -5.63575 | 34001 ft | 447 kts | 137° |
| 2026-04-29 16:49 | 36.37880 | -5.58429 | 34001 ft | 447 kts | 137° |
| 2026-04-29 16:50 | 36.33268 | -5.53272 | 34001 ft | 447 kts | 137° |
| 2026-04-29 16:50 | 36.28660 | -5.48127 | 34001 ft | 447 kts | 137° |
| 2026-04-29 16:51 | 36.24043 | -5.42977 | 34001 ft | 447 kts | 137° |
| 2026-04-29 16:51 | 36.21388 | -5.40019 | 34001 ft | 447 kts | 137° |
| 2026-04-29 16:53 | 36.17686 | -5.35897 | 34001 ft | 447 kts | 137° |
| 2026-04-29 16:53 | 36.13047 | -5.30736 | 34001 ft | 447 kts | 138° |
| 2026-04-29 16:54 | 36.08431 | -5.25607 | 34001 ft | 447 kts | 138° |
| 2026-04-29 16:54 | 36.03818 | -5.20486 | 34001 ft | 447 kts | 138° |
| 2026-04-29 16:55 | 35.99192 | -5.15357 | 34001 ft | 447 kts | 138° |
| 2026-04-29 16:55 | 35.94551 | -5.10217 | 34001 ft | 447 kts | 138° |
| 2026-04-29 16:56 | 35.89928 | -5.05103 | 34001 ft | 447 kts | 138° |
| 2026-04-29 16:56 | 35.85316 | -5.00006 | 34001 ft | 447 kts | 138° |
| 2026-04-29 16:57 | 35.80697 | -4.94908 | 34001 ft | 447 kts | 138° |
| 2026-04-29 16:57 | 35.76071 | -4.89808 | 34001 ft | 447 kts | 138° |
| 2026-04-29 16:58 | 35.71431 | -4.84695 | 34001 ft | 447 kts | 138° |
| 2026-04-29 16:58 | 35.66801 | -4.79600 | 34001 ft | 447 kts | 138° |
| 2026-04-29 16:59 | 35.62167 | -4.74505 | 34001 ft | 447 kts | 138° |
| 2026-04-29 16:59 | 35.57560 | -4.69446 | 34001 ft | 447 kts | 138° |
| 2026-04-29 17:00 | 35.52926 | -4.64362 | 34001 ft | 447 kts | 138° |
| 2026-04-29 17:00 | 35.48275 | -4.59264 | 34001 ft | 447 kts | 138° |
| 2026-04-29 17:01 | 35.43639 | -4.54186 | 34001 ft | 447 kts | 138° |
| 2026-04-29 17:01 | 35.39010 | -4.49123 | 34001 ft | 447 kts | 138° |
| 2026-04-29 17:02 | 35.34390 | -4.44074 | 34001 ft | 447 kts | 138° |
| 2026-04-29 17:02 | 35.29732 | -4.38990 | 34001 ft | 447 kts | 138° |
| 2026-04-29 17:03 | 35.25110 | -4.33949 | 34001 ft | 447 kts | 138° |
| 2026-04-29 17:03 | 35.20475 | -4.28898 | 34001 ft | 447 kts | 138° |
| 2026-04-29 17:04 | 35.15822 | -4.23834 | 34001 ft | 447 kts | 138° |
| 2026-04-29 17:04 | 35.11189 | -4.18796 | 34000 ft | 447 kts | 138° |
| 2026-04-29 17:05 | 35.06540 | -4.13746 | 34000 ft | 447 kts | 138° |
| 2026-04-29 17:05 | 35.01917 | -4.08729 | 34000 ft | 447 kts | 138° |
| 2026-04-29 17:06 | 34.97275 | -4.03697 | 34000 ft | 447 kts | 138° |
| 2026-04-29 17:06 | 34.92638 | -3.98673 | 34000 ft | 447 kts | 138° |
| 2026-04-29 17:07 | 34.87967 | -3.93619 | 34000 ft | 447 kts | 138° |
| 2026-04-29 17:07 | 34.83334 | -3.88610 | 34000 ft | 447 kts | 138° |
| 2026-04-29 17:08 | 34.78680 | -3.83582 | 34000 ft | 447 kts | 138° |
| 2026-04-29 17:08 | 34.74059 | -3.78596 | 33999 ft | 447 kts | 138° |
| 2026-04-29 17:09 | 34.69413 | -3.73586 | 34000 ft | 447 kts | 138° |
| 2026-04-29 17:09 | 34.64740 | -3.68552 | 34000 ft | 447 kts | 138° |
| 2026-04-29 17:10 | 34.60116 | -3.63576 | 34000 ft | 447 kts | 138° |
| 2026-04-29 17:10 | 34.55445 | -3.58552 | 34000 ft | 447 kts | 138° |
| 2026-04-29 17:11 | 34.50796 | -3.53558 | 34000 ft | 447 kts | 138° |
| 2026-04-29 17:11 | 34.46150 | -3.48571 | 34000 ft | 447 kts | 138° |
| 2026-04-29 17:12 | 34.41491 | -3.43574 | 34001 ft | 447 kts | 138° |
| 2026-04-29 17:12 | 34.37291 | -3.40022 | 34000 ft | 446 kts | 159° |
| 2026-04-29 17:13 | 34.33263 | -3.39076 | 34037 ft | 447 kts | 181° |
| 2026-04-29 17:13 | 34.30165 | -3.39652 | 34023 ft | 448 kts | 198° |
| 2026-04-29 17:13 | 34.27384 | -3.41272 | 34036 ft | 449 kts | 215° |
| 2026-04-29 17:13 | 34.25320 | -3.43480 | 34026 ft | 449 kts | 230° |
| 2026-04-29 17:14 | 34.23724 | -3.46456 | 34030 ft | 448 kts | 246° |
| 2026-04-29 17:14 | 34.22848 | -3.50022 | 34030 ft | 448 kts | 262° |
| 2026-04-29 17:14 | 34.22560 | -3.57547 | 33987 ft | 449 kts | 268° |
| 2026-04-29 17:15 | 34.22365 | -3.65057 | 34002 ft | 447 kts | 268° |
| 2026-04-29 17:15 | 34.22163 | -3.72526 | 34003 ft | 447 kts | 268° |
| 2026-04-29 17:16 | 34.21959 | -3.80022 | 34001 ft | 447 kts | 268° |
| 2026-04-29 17:16 | 34.21754 | -3.87467 | 34001 ft | 448 kts | 268° |
| 2026-04-29 17:17 | 34.21546 | -3.94956 | 34001 ft | 448 kts | 268° |
| 2026-04-29 17:17 | 34.21336 | -4.02462 | 34001 ft | 448 kts | 268° |
| 2026-04-29 17:18 | 34.21124 | -4.09954 | 34001 ft | 448 kts | 268° |
| 2026-04-29 17:18 | 34.20756 | -4.17454 | 33993 ft | 447 kts | 260° |
| 2026-04-29 17:19 | 34.19569 | -4.23727 | 34003 ft | 448 kts | 253° |
| 2026-04-29 17:31 | 34.18888 | -4.26344 | 34002 ft | 448 kts | 249° |
| 2026-04-29 17:31 | 34.17460 | -4.29656 | 34007 ft | 447 kts | 234° |
| 2026-04-29 17:31 | 34.15334 | -4.32398 | 34032 ft | 447 kts | 219° |
| 2026-04-29 17:32 | 34.13102 | -4.34962 | 34009 ft | 449 kts | 233° |
| 2026-04-29 17:32 | 34.11479 | -4.38181 | 34034 ft | 448 kts | 245° |
| 2026-04-29 17:32 | 34.09195 | -4.45129 | 33992 ft | 449 kts | 250° |
| 2026-04-29 17:33 | 34.07110 | -4.52197 | 34000 ft | 447 kts | 251° |
| 2026-04-29 17:33 | 34.05048 | -4.59288 | 34000 ft | 448 kts | 251° |
| 2026-04-29 17:34 | 34.03004 | -4.66315 | 34001 ft | 448 kts | 250° |
| 2026-04-29 17:34 | 34.00943 | -4.73383 | 34001 ft | 448 kts | 250° |
| 2026-04-29 17:35 | 33.97838 | -4.84000 | 34001 ft | 448 kts | 250° |
| 2026-04-29 17:36 | 33.95775 | -4.91034 | 34001 ft | 448 kts | 250° |
| 2026-04-29 17:36 | 33.93700 | -4.98089 | 34001 ft | 448 kts | 250° |
| 2026-04-29 17:37 | 33.92184 | -5.05285 | 34026 ft | 447 kts | 261° |
| 2026-04-29 17:37 | 33.91140 | -5.12670 | 33998 ft | 448 kts | 260° |
| 2026-04-29 17:38 | 33.90093 | -5.20031 | 34000 ft | 448 kts | 260° |
| 2026-04-29 17:38 | 33.89039 | -5.27409 | 34000 ft | 448 kts | 260° |
| 2026-04-29 17:39 | 33.87985 | -5.34758 | 34000 ft | 448 kts | 260° |
| 2026-04-29 17:39 | 33.86924 | -5.42117 | 34001 ft | 448 kts | 260° |
| 2026-04-29 17:40 | 33.85856 | -5.49498 | 34001 ft | 448 kts | 260° |
| 2026-04-29 17:40 | 33.84786 | -5.56867 | 34001 ft | 448 kts | 260° |
| 2026-04-29 17:41 | 33.83715 | -5.64194 | 34001 ft | 448 kts | 260° |
| 2026-04-29 17:41 | 33.82635 | -5.71566 | 34001 ft | 448 kts | 260° |
| 2026-04-29 17:42 | 33.81558 | -5.78876 | 34001 ft | 448 kts | 260° |
| 2026-04-29 17:42 | 33.80470 | -5.86227 | 34001 ft | 448 kts | 260° |
| 2026-04-29 17:43 | 33.79374 | -5.93599 | 34001 ft | 448 kts | 260° |
| 2026-04-29 17:43 | 33.78280 | -6.00932 | 34001 ft | 448 kts | 260° |
| 2026-04-29 17:44 | 33.77177 | -6.08291 | 34001 ft | 448 kts | 260° |
| 2026-04-29 17:44 | 33.76078 | -6.15594 | 34001 ft | 448 kts | 260° |
| 2026-04-29 17:45 | 33.74966 | -6.22951 | 34001 ft | 448 kts | 260° |
| 2026-04-29 17:45 | 33.73851 | -6.30291 | 33752 ft | 452 kts | 260° |
| 2026-04-29 17:45 | 33.73290 | -6.33989 | 33483 ft | 449 kts | 260° |
| 2026-04-29 17:46 | 33.72741 | -6.37657 | 33232 ft | 442 kts | 260° |
| 2026-04-29 17:46 | 33.72198 | -6.41273 | 32979 ft | 438 kts | 260° |
| 2026-04-29 17:46 | 33.71661 | -6.44843 | 32730 ft | 435 kts | 260° |
| 2026-04-29 17:46 | 33.71122 | -6.48414 | 32482 ft | 435 kts | 260° |
| 2026-04-29 17:47 | 33.70584 | -6.51975 | 32235 ft | 434 kts | 260° |
| 2026-04-29 17:47 | 33.70054 | -6.55477 | 31989 ft | 433 kts | 260° |
| 2026-04-29 17:47 | 33.69508 | -6.59035 | 31736 ft | 431 kts | 259° |
| 2026-04-29 17:47 | 33.68952 | -6.62577 | 31482 ft | 429 kts | 259° |
| 2026-04-29 17:48 | 33.68406 | -6.66052 | 31232 ft | 427 kts | 259° |
| 2026-04-29 17:48 | 33.67860 | -6.69522 | 30982 ft | 425 kts | 259° |
| 2026-04-29 17:48 | 33.67315 | -6.72982 | 30732 ft | 423 kts | 259° |
| 2026-04-29 17:48 | 33.66762 | -6.76485 | 30478 ft | 422 kts | 259° |
| 2026-04-29 17:49 | 33.66219 | -6.79913 | 30228 ft | 420 kts | 259° |
| 2026-04-29 17:49 | 33.65671 | -6.83310 | 29976 ft | 418 kts | 256° |
| 2026-04-29 17:49 | 33.64607 | -6.86547 | 29712 ft | 416 kts | 238° |
| 2026-04-29 17:49 | 33.62788 | -6.89174 | 29512 ft | 414 kts | 221° |
| 2026-04-29 17:50 | 33.60374 | -6.91070 | 29294 ft | 414 kts | 202° |
| 2026-04-29 17:50 | 33.57670 | -6.92168 | 29107 ft | 413 kts | 198° |
| 2026-04-29 17:50 | 33.54913 | -6.93248 | 28861 ft | 413 kts | 198° |
| 2026-04-29 17:50 | 33.52193 | -6.94319 | 28606 ft | 411 kts | 198° |
| 2026-04-29 17:51 | 33.49486 | -6.95388 | 28352 ft | 408 kts | 198° |
| 2026-04-29 17:51 | 33.46823 | -6.96439 | 28101 ft | 406 kts | 198° |
| 2026-04-29 17:51 | 33.44133 | -6.97500 | 27848 ft | 404 kts | 198° |
| 2026-04-29 17:51 | 33.41460 | -6.98555 | 27597 ft | 403 kts | 198° |
| 2026-04-29 17:52 | 33.38802 | -6.99603 | 27226 ft | 398 kts | 198° |
| 2026-04-29 17:52 | 33.37087 | -7.00280 | 27032 ft | 395 kts | 198° |
| 2026-04-29 17:52 | 33.33593 | -7.01656 | 26712 ft | 396 kts | 198° |
| 2026-04-29 17:52 | 33.30974 | -7.02687 | 26470 ft | 397 kts | 198° |
| 2026-04-29 17:53 | 33.28358 | -7.03717 | 26227 ft | 397 kts | 198° |
| 2026-04-29 17:53 | 33.25749 | -7.04743 | 25980 ft | 395 kts | 198° |
| 2026-04-29 17:53 | 33.23116 | -7.05778 | 25726 ft | 393 kts | 198° |
| 2026-04-29 17:53 | 33.20533 | -7.06792 | 25474 ft | 389 kts | 198° |
| 2026-04-29 17:54 | 33.17996 | -7.07789 | 25198 ft | 378 kts | 198° |
| 2026-04-29 17:54 | 33.15516 | -7.08762 | 24932 ft | 373 kts | 198° |
| 2026-04-29 17:54 | 33.13068 | -7.09722 | 24679 ft | 371 kts | 198° |
| 2026-04-29 17:54 | 33.10616 | -7.10684 | 24429 ft | 370 kts | 198° |
| 2026-04-29 17:55 | 33.08171 | -7.11641 | 24178 ft | 368 kts | 198° |
| 2026-04-29 17:55 | 33.05759 | -7.12586 | 23929 ft | 366 kts | 198° |
| 2026-04-29 17:55 | 33.03354 | -7.13528 | 23679 ft | 365 kts | 198° |
| 2026-04-29 17:55 | 33.00951 | -7.14468 | 23426 ft | 363 kts | 198° |
| 2026-04-29 17:56 | 32.98560 | -7.15403 | 23175 ft | 361 kts | 198° |
| 2026-04-29 17:56 | 32.96178 | -7.16334 | 22924 ft | 360 kts | 198° |
| 2026-04-29 17:56 | 32.93782 | -7.17271 | 22671 ft | 358 kts | 198° |
| 2026-04-29 17:56 | 32.91429 | -7.18190 | 22422 ft | 357 kts | 198° |
| 2026-04-29 17:57 | 32.89073 | -7.19109 | 22171 ft | 355 kts | 198° |
| 2026-04-29 17:57 | 32.86744 | -7.20018 | 21922 ft | 354 kts | 198° |
| 2026-04-29 17:57 | 32.84407 | -7.20930 | 21672 ft | 353 kts | 198° |
| 2026-04-29 17:57 | 32.82079 | -7.21837 | 21421 ft | 351 kts | 198° |
| 2026-04-29 17:58 | 32.79744 | -7.22746 | 21169 ft | 350 kts | 198° |
| 2026-04-29 17:58 | 32.77437 | -7.23645 | 20919 ft | 349 kts | 198° |
| 2026-04-29 17:58 | 32.75136 | -7.24541 | 20669 ft | 347 kts | 198° |
| 2026-04-29 17:58 | 32.72854 | -7.25429 | 20420 ft | 346 kts | 198° |
| 2026-04-29 17:59 | 32.70573 | -7.26316 | 20171 ft | 345 kts | 198° |
| 2026-04-29 17:59 | 32.68269 | -7.27211 | 19918 ft | 343 kts | 198° |
| 2026-04-29 17:59 | 32.66001 | -7.28093 | 19668 ft | 342 kts | 198° |
| 2026-04-29 17:59 | 32.63777 | -7.28957 | 19422 ft | 341 kts | 198° |
| 2026-04-29 18:00 | 32.61498 | -7.29841 | 19168 ft | 339 kts | 198° |
| 2026-04-29 18:00 | 32.59273 | -7.30705 | 18920 ft | 338 kts | 198° |
| 2026-04-29 18:00 | 32.57042 | -7.31570 | 18671 ft | 337 kts | 198° |
| 2026-04-29 18:00 | 32.54817 | -7.32432 | 18421 ft | 335 kts | 198° |
| 2026-04-29 18:01 | 32.52615 | -7.33286 | 18173 ft | 334 kts | 198° |
| 2026-04-29 18:01 | 32.50383 | -7.34150 | 17920 ft | 333 kts | 198° |
| 2026-04-29 18:01 | 32.48187 | -7.35001 | 17670 ft | 332 kts | 198° |
| 2026-04-29 18:01 | 32.46000 | -7.35847 | 17421 ft | 330 kts | 198° |
| 2026-04-29 18:02 | 32.43828 | -7.36688 | 17171 ft | 329 kts | 199° |
| 2026-04-29 18:02 | 32.41824 | -7.37938 | 16929 ft | 328 kts | 221° |
| 2026-04-29 18:02 | 32.40393 | -7.40016 | 16744 ft | 327 kts | 245° |
| 2026-04-29 18:02 | 32.39776 | -7.42593 | 16557 ft | 326 kts | 268° |
| 2026-04-29 18:03 | 32.40019 | -7.45247 | 15971 ft | 336 kts | 287° |
| 2026-04-29 18:03 | 32.41077 | -7.47746 | 14657 ft | 350 kts | 310° |
| 2026-04-29 18:03 | 32.42876 | -7.49620 | 13494 ft | 355 kts | 331° |
| 2026-04-29 18:03 | 32.45181 | -7.50628 | 12305 ft | 359 kts | 352° |
| 2026-04-29 18:04 | 32.47663 | -7.50595 | 11111 ft | 361 kts | 12° |
| 2026-04-29 18:04 | 32.49950 | -7.49544 | 10039 ft | 359 kts | 29° |
| 2026-04-29 18:04 | 32.52179 | -7.48285 | 9084 ft | 353 kts | 21° |
| 2026-04-29 18:04 | 32.54482 | -7.47314 | 8093 ft | 350 kts | 18° |
| 2026-04-29 18:05 | 32.56768 | -7.46466 | 7104 ft | 346 kts | 17° |
| 2026-04-29 18:05 | 32.59078 | -7.45666 | 6099 ft | 343 kts | 16° |
| 2026-04-29 18:05 | 32.61354 | -7.44902 | 5102 ft | 340 kts | 16° |
| 2026-04-29 18:05 | 32.63601 | -7.44159 | 4110 ft | 336 kts | 15° |
| 2026-04-29 18:06 | 32.65829 | -7.43428 | 3466 ft | 322 kts | 15° |
| 2026-04-29 18:06 | 32.67855 | -7.42764 | 3834 ft | 286 kts | 15° |
| 2026-04-29 18:06 | 32.69737 | -7.42149 | 3636 ft | 281 kts | 15° |
| 2026-04-29 18:06 | 32.71600 | -7.41540 | 3669 ft | 266 kts | 15° |
| 2026-04-29 18:07 | 32.73335 | -7.40973 | 3673 ft | 254 kts | 15° |
| 2026-04-29 18:07 | 32.74996 | -7.40429 | 3662 ft | 241 kts | 15° |
| 2026-04-29 18:07 | 32.76587 | -7.39909 | 3659 ft | 231 kts | 15° |
| 2026-04-29 18:07 | 32.78096 | -7.39415 | 3656 ft | 218 kts | 15° |
| 2026-04-29 18:08 | 32.79523 | -7.38948 | 3637 ft | 203 kts | 15° |
| 2026-04-29 18:08 | 32.80835 | -7.38518 | 3761 ft | 189 kts | 15° |
| 2026-04-29 18:08 | 32.82111 | -7.38101 | 3709 ft | 193 kts | 15° |
| 2026-04-29 18:08 | 32.83398 | -7.37679 | 3667 ft | 189 kts | 15° |
| 2026-04-29 18:09 | 32.84674 | -7.37261 | 3703 ft | 191 kts | 15° |
| 2026-04-29 18:09 | 32.85966 | -7.36838 | 3682 ft | 191 kts | 15° |
| 2026-04-29 18:09 | 32.87235 | -7.36421 | 3712 ft | 189 kts | 15° |
| 2026-04-29 18:09 | 32.88508 | -7.36004 | 3702 ft | 186 kts | 15° |
| 2026-04-29 18:10 | 32.89746 | -7.35598 | 3649 ft | 180 kts | 15° |
| 2026-04-29 18:10 | 32.90941 | -7.35205 | 3696 ft | 180 kts | 15° |
| 2026-04-29 18:10 | 32.95036 | -7.33858 | 3672 ft | 180 kts | 15° |
| 2026-04-29 18:10 | 33.01303 | -7.31798 | 3697 ft | 180 kts | 15° |
| 2026-04-29 18:11 | 33.05856 | -7.30299 | 3693 ft | 180 kts | 15° |
| 2026-04-29 18:11 | 33.07071 | -7.29899 | 3689 ft | 180 kts | 15° |
| 2026-04-29 18:11 | 33.08278 | -7.29501 | 3686 ft | 180 kts | 15° |
| 2026-04-29 18:11 | 33.09486 | -7.29103 | 3688 ft | 180 kts | 15° |
| 2026-04-29 18:12 | 33.10693 | -7.28704 | 3687 ft | 180 kts | 15° |
| 2026-04-29 18:12 | 33.11919 | -7.28300 | 3687 ft | 180 kts | 15° |
| 2026-04-29 18:12 | 33.13121 | -7.27904 | 3686 ft | 180 kts | 15° |
| 2026-04-29 18:12 | 33.14360 | -7.27856 | 3633 ft | 180 kts | 340° |
| 2026-04-29 18:13 | 33.15316 | -7.28801 | 3708 ft | 180 kts | 298° |
| 2026-04-29 18:13 | 33.15571 | -7.30249 | 3719 ft | 181 kts | 272° |
| 2026-04-29 18:13 | 33.15664 | -7.31741 | 3696 ft | 182 kts | 276° |
| 2026-04-29 18:13 | 33.15788 | -7.33247 | 3678 ft | 180 kts | 275° |
| 2026-04-29 18:14 | 33.15913 | -7.34725 | 3690 ft | 180 kts | 276° |
| 2026-04-29 18:14 | 33.16040 | -7.36207 | 3686 ft | 180 kts | 276° |
| 2026-04-29 18:14 | 33.16170 | -7.37703 | 3688 ft | 180 kts | 276° |
| 2026-04-29 18:14 | 33.16299 | -7.39189 | 3687 ft | 180 kts | 276° |
| 2026-04-29 18:15 | 33.16428 | -7.40669 | 3687 ft | 180 kts | 276° |
| 2026-04-29 18:15 | 33.16558 | -7.42173 | 3687 ft | 180 kts | 276° |
| 2026-04-29 18:15 | 33.16685 | -7.43646 | 3689 ft | 180 kts | 276° |
| 2026-04-29 18:15 | 33.16814 | -7.45133 | 3703 ft | 180 kts | 276° |
| 2026-04-29 18:16 | 33.16943 | -7.46623 | 3682 ft | 179 kts | 276° |
| 2026-04-29 18:16 | 33.17070 | -7.48095 | 3689 ft | 180 kts | 276° |
| 2026-04-29 18:16 | 33.17198 | -7.49589 | 3687 ft | 180 kts | 276° |
| 2026-04-29 18:16 | 33.17325 | -7.51057 | 3686 ft | 180 kts | 276° |
| 2026-04-29 18:17 | 33.17802 | -7.52421 | 3636 ft | 180 kts | 315° |
| 2026-04-29 18:17 | 33.18902 | -7.53054 | 3713 ft | 179 kts | 354° |
| 2026-04-29 18:17 | 33.20140 | -7.53289 | 3685 ft | 182 kts | 348° |
| 2026-04-29 18:17 | 33.21388 | -7.53634 | 3426 ft | 180 kts | 346° |
| 2026-04-29 18:18 | 33.22589 | -7.54003 | 3206 ft | 179 kts | 345° |
| 2026-04-29 18:18 | 33.23797 | -7.54395 | 2974 ft | 175 kts | 345° |
| 2026-04-29 18:18 | 33.24910 | -7.54766 | 2700 ft | 162 kts | 344° |
| 2026-04-29 18:18 | 33.25989 | -7.55131 | 2493 ft | 158 kts | 344° |
| 2026-04-29 18:19 | 33.27034 | -7.55486 | 2304 ft | 157 kts | 344° |
| 2026-04-29 18:19 | 33.28102 | -7.55850 | 2109 ft | 157 kts | 344° |
| 2026-04-29 18:19 | 33.29156 | -7.56211 | 1903 ft | 157 kts | 344° |
| 2026-04-29 18:19 | 33.30210 | -7.56573 | 1694 ft | 157 kts | 344° |
| 2026-04-29 18:20 | 33.31257 | -7.56933 | 1484 ft | 156 kts | 344° |
| 2026-04-29 18:20 | 33.32302 | -7.57286 | 1275 ft | 156 kts | 345° |
| 2026-04-29 18:20 | 33.33344 | -7.57641 | 1067 ft | 155 kts | 344° |
| 2026-04-29 18:20 | 33.34383 | -7.57998 | 861 ft | 155 kts | 344° |
| 2026-04-29 18:21 | 33.35384 | -7.58347 | 663 ft | 141 kts | 343° |
| 2026-04-29 18:21 | 33.35957 | -7.58520 | 659 ft | 3 kts | 346° |
| 2026-04-29 18:21 | 33.36003 | -7.58533 | 659 ft | 3 kts | 348° |
| 2026-04-29 18:22 | 33.36087 | -7.58561 | 657 ft | 21 kts | 345° |
| 2026-04-29 18:22 | 33.36149 | -7.58532 | 656 ft | 16 kts | 43° |
| 2026-04-29 18:22 | 33.36179 | -7.58479 | 656 ft | 0 kts | 71° |